Another Hard Day at the Office Weather Stats

 
 
 

High monthly outside Temperature, 30.2 , C
Low monthly outside Temperature, 10.2 , C
High yearly outside Temperature, 30.9 , C
Low yearly outside Temperature, -2.2 , C

Low monthly barometer, 993.8 , mb
High monthly barometer, 1023.4 , mb
Low yearly barometer, 975.0 , mb
High yearly barometer 1041.1 , mb

High wind speed, 18.0 , mph
Time of High wind speed, 15:43 , mph
High monthly wind speed, 39.0 , mph
High yearly wind speed, 55.0 , mph

 

 




3125
                    Temp     Hi    Low   Out    Dew  Wind  Wind   Wind    Hi    Hi   Wind   Heat    THW                Rain    Heat    Cool    In     In    In     In     In   In Air  Wind  Wind    ISS   Arc.
  Date    Time     Out   Temp   Temp   Hum    Pt. Speed   Dir    Run Speed   Dir  Chill  Index  Index   Bar    Rain  Rate    D-D     D-D    Temp   Hum    Dew   Heat    EMC Density  Samp   Tx   Recept  Int.
---------------------------------------------------------------------------------------------------------------------------------------------------------------------------------------------------------------
30/08/15   0:05   16.3   16.3   16.3    90   14.6   8.0   NNE   0.67  14.0   NNE   15.6   16.5   15.8  1016.6  0.00   0.0   0.007   0.000   28.1    52   17.3   28.7   9.40 1.1536    115    1    100.0    5 
30/08/15   0:10   16.3   16.3   16.3    90   14.7   8.0   NNE   0.67  13.0   NNE   15.7   16.6   15.9  1016.7  0.00   0.0   0.007   0.000   28.0    52   17.2   28.6   9.40 1.1540    117    1    100.0    5 
30/08/15   0:15   16.3   16.3   16.3    90   14.7   7.0   NNE   0.58  13.0   NNE   16.1   16.6   16.3  1016.6  0.00   0.0   0.007   0.000   28.0    52   17.2   28.6   9.40 1.1539    116    1    100.0    5 
30/08/15   0:20   16.3   16.3   16.3    90   14.6   8.0   NNE   0.67  13.0   NNE   15.6   16.5   15.8  1016.5  0.00   0.0   0.007   0.000   28.0    52   17.2   28.6   9.40 1.1537    117    1    100.0    5 
30/08/15   0:25   16.3   16.3   16.3    90   14.6   9.0   NNE   0.75  13.0   NNE   15.1   16.5   15.3  1016.5  0.00   0.0   0.007   0.000   27.9    52   17.2   28.6   9.40 1.1540    117    1    100.0    5 
30/08/15   0:30   16.3   16.3   16.2    90   14.6   9.0   NNE   0.75  16.0   NNE   15.1   16.5   15.3  1016.5  0.00   0.0   0.007   0.000   27.9    52   17.2   28.6   9.40 1.1541    117    1    100.0    5 
30/08/15   0:35   16.2   16.3   16.2    90   14.6  10.0   NNE   0.83  16.0   NNE   14.6   16.4   14.8  1016.4  0.00   0.0   0.007   0.000   27.9    52   17.2   28.6   9.40 1.1540    116    1    100.0    5 
30/08/15   0:40   16.2   16.2   16.2    90   14.6   7.0   NNE   0.58  11.0   NNE   15.9   16.4   16.2  1016.5  0.00   0.0   0.007   0.000   27.9    52   17.1   28.4   9.41 1.1543    117    1    100.0    5 
30/08/15   0:45   16.2   16.2   16.2    90   14.5   7.0   NNE   0.58  13.0     N   15.8   16.4   16.1  1016.5  0.00   0.0   0.008   0.000   27.9    52   17.1   28.4   9.41 1.1544    116    1    100.0    5 
30/08/15   0:50   16.2   16.2   16.2    90   14.5   7.0   NNE   0.58  11.0   NNE   15.8   16.4   16.1  1016.5  0.00   0.0   0.008   0.000   27.8    52   17.1   28.4   9.41 1.1546    116    1    100.0    5 
30/08/15   0:55   16.1   16.2   16.1    90   14.5   7.0     N   0.58  14.0     N   15.8   16.3   16.0  1016.3  0.00   0.0   0.008   0.000   27.8    52   17.1   28.4   9.41 1.1544    116    1    100.0    5 
30/08/15   1:00   16.1   16.1   16.1    91   14.6   8.0   NNE   0.67  13.0     N   15.4   16.3   15.6  1016.3  0.00   0.0   0.008   0.000   27.8    52   17.0   28.3   9.41 1.1546    116    1    100.0    5 
30/08/15   1:05   16.1   16.1   16.1    91   14.6   7.0   NNE   0.58  14.0   NNE   15.8   16.3   16.0  1016.3  0.00   0.0   0.008   0.000   27.8    52   17.0   28.3   9.41 1.1547    117    1    100.0    5 
30/08/15   1:10   16.1   16.2   16.1    91   14.6   7.0   NNE   0.58  11.0   NNE   15.8   16.3   16.0  1016.2  0.00   0.0   0.008   0.000   27.8    52   17.0   28.3   9.41 1.1545    116    1    100.0    5 
30/08/15   1:15   16.1   16.2   16.1    91   14.6   6.0   NNE   0.50  10.0    NE   16.0   16.3   16.2  1016.1  0.00   0.0   0.008   0.000   27.7    52   17.0   28.2   9.41 1.1548    117    1    100.0    5 
30/08/15   1:20   16.1   16.2   16.1    90   14.5   7.0   NNE   0.58  12.0   NNE   15.8   16.3   16.0  1016.0  0.00   0.0   0.008   0.000   27.7    52   17.0   28.2   9.41 1.1546    117    1    100.0    5 
30/08/15   1:25   16.1   16.2   16.1    90   14.5   7.0   NNE   0.58  12.0     N   15.8   16.3   16.0  1015.9  0.00   0.0   0.008   0.000   27.7    52   16.9   28.1   9.41 1.1548    116    1    100.0    5 
30/08/15   1:30   16.1   16.1   16.1    90   14.4   8.0   NNE   0.67  12.0   NNE   15.3   16.3   15.6  1015.9  0.00   0.0   0.008   0.000   27.7    52   16.9   28.1   9.41 1.1548    117    1    100.0    5 
30/08/15   1:35   16.0   16.1   16.0    90   14.4   7.0   NNE   0.58   9.0   NNE   15.7   16.2   15.9  1015.9  0.00   0.0   0.008   0.000   27.7    52   16.9   28.1   9.41 1.1548    118    1    100.0    5 
30/08/15   1:40   16.0   16.0   16.0    91   14.5   7.0   NNE   0.58  14.0   NNE   15.7   16.2   15.9  1015.9  0.00   0.0   0.008   0.000   27.6    52   16.9   28.1   9.42 1.1551    117    1    100.0    5 
30/08/15   1:45   16.0   16.0   15.9    91   14.5   9.0   NNE   0.75  14.0    NE   14.8   16.2   15.1  1015.9  0.00   0.0   0.008   0.000   27.6    52   16.9   28.1   9.42 1.1551    117    1    100.0    5 
30/08/15   1:50   15.9   16.0   15.9    91   14.5   9.0   NNE   0.75  14.0   NNE   14.7   16.2   14.9  1016.0  0.00   0.0   0.008   0.000   27.6    52   16.9   28.1   9.42 1.1552    117    1    100.0    5 
30/08/15   1:55   16.0   16.0   15.9    91   14.5   8.0   NNE   0.67  12.0    NE   15.3   16.2   15.5  1016.0  0.00   0.0   0.008   0.000   27.6    52   16.8   27.9   9.42 1.1555    116    1    100.0    5 
30/08/15   2:00   16.0   16.0   16.0    91   14.5   8.0   NNE   0.67  13.0   NNE   15.3   16.2   15.5  1016.1  0.00   0.0   0.008   0.000   27.6    52   16.8   27.9   9.42 1.1556    117    1    100.0    5 
30/08/15   2:05   16.1   16.1   16.0    91   14.6   8.0   NNE   0.67  15.0    NE   15.3   16.3   15.6  1016.1  0.00   0.0   0.008   0.000   27.5    52   16.8   27.9   9.42 1.1559    114    1    100.0    5 
30/08/15   2:10   16.1   16.1   16.1    91   14.6   9.0   NNE   0.75  12.0    NE   14.9   16.3   15.2  1016.0  0.00   0.0   0.008   0.000   27.5    52   16.8   27.9   9.42 1.1558    116    1    100.0    5 
30/08/15   2:15   16.1   16.1   16.1    91   14.6   8.0   NNE   0.67  13.0   NNE   15.4   16.3   15.6  1016.0  0.00   0.0   0.008   0.000   27.4    52   16.7   27.8   9.42 1.1560    116    1    100.0    5 
30/08/15   2:20   16.1   16.1   16.1    91   14.6   8.0   NNE   0.67  17.0   NNE   15.4   16.3   15.6  1016.0  0.00   0.0   0.008   0.000   27.4    52   16.7   27.8   9.42 1.1560    116    1    100.0    5 
30/08/15   2:25   16.1   16.1   16.1    91   14.6   7.0     N   0.58  13.0   NNE   15.8   16.3   16.0  1016.0  0.00   0.0   0.008   0.000   27.4    52   16.7   27.8   9.42 1.1560    117    1    100.0    5 
30/08/15   2:30   16.2   16.2   16.1    90   14.5   7.0   NNE   0.58  11.0   NNE   15.8   16.4   16.1  1015.8  0.00   0.0   0.008   0.000   27.4    52   16.7   27.7   9.42 1.1561    116    1    100.0    5 
30/08/15   2:35   16.1   16.2   16.1    90   14.5   9.0   NNE   0.75  16.0   NNE   14.9   16.3   15.2  1015.6  0.00   0.0   0.008   0.000   27.4    52   16.7   27.7   9.42 1.1559    117    1    100.0    5 
30/08/15   2:40   16.1   16.1   16.1    90   14.5   8.0     N   0.67  14.0   NNE   15.4   16.3   15.6  1015.6  0.00   0.0   0.008   0.000   27.3    52   16.6   27.7   9.43 1.1562    117    1    100.0    5 
30/08/15   2:45   16.1   16.1   16.1    90   14.4   9.0   NNE   0.75  13.0   NNE   14.9   16.3   15.1  1015.7  0.00   0.0   0.008   0.000   27.3    52   16.6   27.7   9.43 1.1563    116    1    100.0    5 
30/08/15   2:50   16.1   16.1   16.1    90   14.4   8.0   NNE   0.67  14.0   NNE   15.3   16.3   15.6  1015.9  0.00   0.0   0.008   0.000   27.3    52   16.6   27.7   9.43 1.1565    117    1    100.0    5 
30/08/15   2:55   16.1   16.1   16.1    90   14.4   6.0   NNE   0.50  10.0   NNE   15.9   16.3   16.2  1015.9  0.00   0.0   0.008   0.000   27.3    52   16.6   27.6   9.43 1.1567    116    1    100.0    5 
30/08/15   3:00   16.1   16.1   16.1    90   14.5   9.0   NNE   0.75  15.0   NNE   14.9   16.3   15.2  1015.7  0.00   0.0   0.008   0.000   27.3    52   16.6   27.6   9.43 1.1566    117    1    100.0    5 
30/08/15   3:05   16.1   16.1   16.1    90   14.4   9.0   NNE   0.75  15.0   NNE   14.9   16.3   15.1  1015.7  0.00   0.0   0.008   0.000   27.3    52   16.6   27.6   9.43 1.1565    117    1    100.0    5 
30/08/15   3:10   16.1   16.1   16.1    90   14.4   8.0   NNE   0.67  13.0   NNE   15.3   16.3   15.6  1015.8  0.00   0.0   0.008   0.000   27.2    52   16.5   27.5   9.43 1.1570    117    1    100.0    5 
30/08/15   3:15   16.0   16.1   16.0    90   14.4   8.0   NNE   0.67  12.0   NNE   15.3   16.2   15.5  1015.6  0.00   0.0   0.008   0.000   27.2    52   16.5   27.5   9.43 1.1568    117    1    100.0    5 
30/08/15   3:20   16.0   16.1   16.0    90   14.4   8.0   NNE   0.67  15.0    NE   15.3   16.2   15.5  1015.7  0.00   0.0   0.008   0.000   27.2    52   16.5   27.5   9.43 1.1569    116    1    100.0    5 
30/08/15   3:25   16.1   16.1   16.0    90   14.4   8.0   NNE   0.67  12.0   NNE   15.3   16.3   15.6  1015.6  0.00   0.0   0.008   0.000   27.2    52   16.5   27.4   9.43 1.1571    117    1    100.0    5 
30/08/15   3:30   16.1   16.1   16.1    90   14.4   8.0   NNE   0.67  16.0   NNE   15.3   16.3   15.6  1015.8  0.00   0.0   0.008   0.000   27.2    52   16.5   27.4   9.43 1.1572    117    1    100.0    5 
30/08/15   3:35   16.1   16.1   16.1    89   14.3   8.0     N   0.67  13.0    NE   15.4   16.3   15.6  1015.8  0.00   0.0   0.008   0.000   27.1    52   16.4   27.4   9.43 1.1575    116    1    100.0    5 
30/08/15   3:40   16.2   16.2   16.1    90   14.5   9.0     N   0.75  13.0   NNE   15.0   16.4   15.2  1015.6  0.00   0.0   0.008   0.000   27.1    52   16.4   27.4   9.43 1.1573    118    1    100.0    5 
30/08/15   3:45   16.2   16.2   16.2    89   14.4   9.0   NNE   0.75  14.0   NNW   15.0   16.4   15.2  1015.6  0.00   0.0   0.008   0.000   27.1    52   16.4   27.4   9.43 1.1574    116    1    100.0    5 
30/08/15   3:50   16.2   16.2   16.2    89   14.4   8.0     N   0.67  11.0   NNE   15.4   16.4   15.7  1015.7  0.00   0.0   0.008   0.000   27.1    52   16.4   27.3   9.44 1.1577    116    1    100.0    5 
30/08/15   3:55   16.2   16.2   16.2    89   14.4   9.0   NNE   0.75  19.0   NNE   15.0   16.4   15.2  1015.5  0.00   0.0   0.008   0.000   27.1    52   16.4   27.3   9.44 1.1575    116    1    100.0    5 
30/08/15   4:00   16.2   16.2   16.2    89   14.4   8.0     N   0.67  14.0     N   15.5   16.4   15.7  1015.6  0.00   0.0   0.007   0.000   27.1    52   16.4   27.3   9.44 1.1576    117    1    100.0    5 
30/08/15   4:05   16.2   16.2   16.2    89   14.4   9.0     N   0.75  16.0     N   15.1   16.4   15.3  1015.4  0.00   0.0   0.007   0.000   27.0    52   16.3   27.2   9.44 1.1577    115    1    100.0    5 
30/08/15   4:10   16.2   16.2   16.2    89   14.4   8.0   NNE   0.67  12.0   NNW   15.5   16.4   15.7  1015.4  0.00   0.0   0.007   0.000   27.0    52   16.3   27.2   9.44 1.1577    116    1    100.0    5 
30/08/15   4:15   16.2   16.2   16.2    89   14.4   8.0   NNE   0.67  16.0   NNE   15.4   16.4   15.7  1015.3  0.00   0.0   0.008   0.000   26.9    52   16.3   27.2   9.44 1.1578    117    1    100.0    5 
30/08/15   4:20   16.1   16.2   16.1    89   14.3   9.0     N   0.75  15.0   NNE   14.9   16.3   15.2  1015.4  0.00   0.0   0.008   0.000   26.9    52   16.3   27.2   9.44 1.1579    116    1    100.0    5 
30/08/15   4:25   16.1   16.1   16.1    89   14.2   9.0   NNE   0.75  15.0   NNE   14.9   16.3   15.1  1015.4  0.00   0.0   0.008   0.000   26.9    52   16.3   27.2   9.44 1.1579    117    1    100.0    5 
30/08/15   4:30   16.1   16.1   16.1    89   14.2   8.0     N   0.67  14.0   NNE   15.3   16.3   15.6  1015.4  0.00   0.0   0.008   0.000   26.9    52   16.3   27.2   9.44 1.1579    117    1    100.0    5 
30/08/15   4:35   16.1   16.1   16.1    89   14.2  11.0   NNE   0.92  16.0   NNE   14.1   16.3   14.3  1015.3  0.00   0.0   0.008   0.000   26.9    52   16.2   27.1   9.44 1.1581    117    1    100.0    5 
30/08/15   4:40   16.1   16.1   16.1    89   14.2  10.0     N   0.83  16.0   NNE   14.4   16.3   14.7  1015.4  0.00   0.0   0.008   0.000   26.9    52   16.2   27.1   9.44 1.1582    116    1    100.0    5 
30/08/15   4:45   16.1   16.1   16.1    89   14.2   9.0     N   0.75  15.0     N   14.9   16.3   15.1  1015.2  0.00   0.0   0.008   0.000   26.9    52   16.2   27.1   9.44 1.1580    118    1    100.0    5 
30/08/15   4:50   16.1   16.1   16.1    89   14.2  10.0     N   0.83  17.0     N   14.4   16.3   14.7  1015.3  0.00   0.0   0.008   0.000   26.8    52   16.1   27.1   9.44 1.1584    116    1    100.0    5 
30/08/15   4:55   16.1   16.1   16.1    89   14.2   9.0     N   0.75  16.0   NNE   14.9   16.3   15.1  1015.4  0.00   0.0   0.008   0.000   26.8    52   16.1   27.1   9.44 1.1585    117    1    100.0    5 
30/08/15   5:00   16.1   16.1   16.1    89   14.2  10.0   NNE   0.83  16.0     N   14.4   16.3   14.7  1015.3  0.00   0.0   0.008   0.000   26.8    52   16.1   27.1   9.44 1.1584    116    1    100.0    5 
30/08/15   5:05   16.1   16.1   16.1    89   14.2  10.0   NNE   0.83  16.0   NNE   14.4   16.3   14.7  1015.3  0.00   0.0   0.008   0.000   26.8    52   16.1   27.1   9.44 1.1584    116    1    100.0    5 
30/08/15   5:10   16.1   16.1   16.1    89   14.2  10.0   NNE   0.83  15.0   ENE   14.4   16.3   14.7  1015.2  0.00   0.0   0.008   0.000   26.8    52   16.1   27.0   9.45 1.1586    117    1    100.0    5 
30/08/15   5:15   16.1   16.1   16.1    89   14.2   9.0   NNE   0.75  14.0   NNE   14.9   16.3   15.1  1015.2  0.00   0.0   0.008   0.000   26.8    52   16.1   27.0   9.45 1.1586    117    1    100.0    5 
30/08/15   5:20   16.1   16.1   16.1    89   14.2   9.0   NNE   0.75  15.0    NE   14.9   16.3   15.1  1015.2  0.00   0.0   0.008   0.000   26.7    52   16.0   26.9   9.45 1.1588    117    1    100.0    5 
30/08/15   5:25   16.1   16.1   16.1    89   14.3  10.0   NNE   0.83  15.0   NNE   14.5   16.3   14.7  1015.2  0.00   0.0   0.008   0.000   26.8    52   16.1   27.0   9.45 1.1585    117    1    100.0    5 
30/08/15   5:30   16.1   16.1   16.1    89   14.3  11.0   NNE   0.92  18.0   NNE   14.2   16.3   14.4  1015.0  0.00   0.0   0.008   0.000   26.7    52   16.0   26.9   9.45 1.1586    117    1    100.0    5 
30/08/15   5:35   16.1   16.2   16.1    88   14.1  10.0   NNE   0.83  17.0   NNE   14.5   16.3   14.7  1014.9  0.00   0.0   0.008   0.000   26.7    52   16.0   26.8   9.45 1.1588    117    1    100.0    5 
30/08/15   5:40   16.2   16.2   16.1    88   14.2  11.0   NNE   0.92  17.0   NNE   14.2   16.3   14.4  1015.0  0.00   0.0   0.008   0.000   26.7    52   16.0   26.9   9.45 1.1586    117    1    100.0    5 
30/08/15   5:45   16.2   16.2   16.2    88   14.2  13.0   NNE   1.08  20.0   NNE   13.6   16.3   13.8  1015.1  0.00   0.0   0.008   0.000   26.7    52   16.0   26.8   9.45 1.1590    117    1    100.0    5 
30/08/15   5:50   16.2   16.2   16.2    88   14.2  10.0   NNE   0.83  16.0   NNE   14.6   16.3   14.7  1015.1  0.00   0.0   0.008   0.000   26.6    52   15.9   26.8   9.45 1.1593    117    1    100.0    5 
30/08/15   5:55   16.2   16.2   16.2    88   14.2   9.0   NNE   0.75  16.0   NNE   15.1   16.4   15.2  1015.3  0.00   0.0   0.007   0.000   26.7    52   16.0   26.8   9.45 1.1592    117    1    100.0    5 
30/08/15   6:00   16.2   16.2   16.2    88   14.2   9.0   NNE   0.75  14.0   NNE   15.1   16.4   15.2  1015.3  0.00   0.0   0.007   0.000   26.6    52   15.9   26.8   9.45 1.1595    117    1    100.0    5 
30/08/15   6:05   16.2   16.2   16.2    88   14.2  10.0   NNE   0.83  16.0   NNE   14.6   16.4   14.8  1015.3  0.00   0.0   0.007   0.000   26.6    52   15.9   26.8   9.45 1.1595    116    1    100.0    5 
30/08/15   6:10   16.2   16.2   16.2    88   14.2  10.0   NNE   0.83  15.0   NNE   14.6   16.4   14.8  1015.3  0.00   0.0   0.007   0.000   26.6    52   15.9   26.7   9.45 1.1598    117    1    100.0    5 
30/08/15   6:15   16.2   16.3   16.2    88   14.2   9.0   NNE   0.75  14.0   NNE   15.1   16.4   15.2  1015.3  0.00   0.0   0.007   0.000   26.6    52   15.9   26.7   9.45 1.1598    117    1    100.0    5 
30/08/15   6:20   16.2   16.3   16.2    87   14.1  10.0   NNE   0.83  16.0     N   14.6   16.4   14.8  1015.2  0.00   0.0   0.007   0.000   26.6    52   15.9   26.7   9.45 1.1597    117    1    100.0    5 
30/08/15   6:25   16.3   16.3   16.2    88   14.3  10.0     N   0.83  15.0   NNE   14.7   16.4   14.9  1015.3  0.00   0.0   0.007   0.000   26.5    52   15.8   26.7   9.46 1.1601    117    1    100.0    5 
30/08/15   6:30   16.3   16.3   16.3    87   14.1   9.0   NNE   0.75  14.0   NNE   15.1   16.4   15.3  1015.3  0.00   0.0   0.007   0.000   26.5    52   15.8   26.7   9.46 1.1601    117    1    100.0    5 
30/08/15   6:35   16.3   16.3   16.3    88   14.3   8.0     N   0.67  13.0   NNE   15.6   16.4   15.8  1015.3  0.00   0.0   0.007   0.000   26.5    52   15.8   26.7   9.46 1.1601    117    1    100.0    5 
30/08/15   6:40   16.3   16.3   16.3    88   14.3   8.0     N   0.67  14.0     N   15.7   16.6   15.9  1015.3  0.00   0.0   0.007   0.000   26.5    52   15.8   26.7   9.46 1.1601    117    1    100.0    5 
30/08/15   6:45   16.3   16.3   16.3    88   14.3   8.0     N   0.67  12.0     N   15.7   16.6   15.9  1015.3  0.00   0.0   0.007   0.000   26.4    52   15.8   26.6   9.46 1.1604    117    1    100.0    5 
30/08/15   6:50   16.3   16.3   16.3    88   14.3   8.0     N   0.67  14.0     N   15.7   16.6   15.9  1015.3  0.00   0.0   0.007   0.000   26.4    52   15.8   26.6   9.46 1.1604    117    1    100.0    5 
30/08/15   6:55   16.3   16.3   16.3    88   14.3   8.0   NNE   0.67  14.0   NNE   15.7   16.6   15.9  1015.2  0.00   0.0   0.007   0.000   26.4    52   15.8   26.6   9.46 1.1603    117    1    100.0    5 
30/08/15   7:00   16.3   16.3   16.3    88   14.3   8.0   NNE   0.67  12.0   NNE   15.6   16.4   15.8  1015.3  0.00   0.0   0.007   0.000   26.4    52   15.8   26.6   9.46 1.1604    117    1    100.0    5 
30/08/15   7:05   16.3   16.3   16.3    88   14.3  10.0   NNE   0.83  15.0     N   14.7   16.4   14.9  1015.2  0.00   0.0   0.007   0.000   26.4    52   15.8   26.6   9.46 1.1603    117    1    100.0    5 
30/08/15   7:10   16.3   16.3   16.3    88   14.3   9.0   NNE   0.75  15.0   NNE   15.2   16.6   15.4  1015.2  0.00   0.0   0.007   0.000   26.4    52   15.8   26.6   9.46 1.1603    116    1    100.0    5 
30/08/15   7:15   16.3   16.3   16.3    88   14.3  11.0   NNE   0.92  18.0   NNE   14.4   16.6   14.6  1015.3  0.00   0.0   0.007   0.000   26.4    52   15.7   26.6   9.46 1.1606    115    1    100.0    5 
30/08/15   7:20   16.3   16.3   16.3    88   14.3  11.0   NNE   0.92  17.0   NNE   14.4   16.6   14.6  1015.2  0.00   0.0   0.007   0.000   26.4    52   15.8   26.6   9.46 1.1603    117    1    100.0    5 
30/08/15   7:25   16.4   16.4   16.3    88   14.4   9.0   NNE   0.75  15.0     N   15.3   16.6   15.5  1015.3  0.00   0.0   0.007   0.000   26.4    52   15.7   26.6   9.46 1.1607    116    1    100.0    5 
30/08/15   7:30   16.4   16.4   16.4    88   14.5  10.0   NNE   0.83  16.0   NNE   14.9   16.7   15.1  1015.3  0.00   0.0   0.007   0.000   26.4    52   15.7   26.6   9.46 1.1607    117    1    100.0    5 
30/08/15   7:35   16.4   16.4   16.4    88   14.5   9.0   NNE   0.75  15.0   NNE   15.3   16.7   15.6  1015.4  0.00   0.0   0.007   0.000   26.4    52   15.7   26.6   9.46 1.1608    116    1    100.0    5 
30/08/15   7:40   16.4   16.4   16.4    88   14.5  10.0   NNE   0.83  17.0   NNE   14.9   16.7   15.1  1015.3  0.00   0.0   0.007   0.000   26.4    52   15.7   26.6   9.46 1.1607    117    1    100.0    5 
30/08/15   7:45   16.5   16.5   16.4    88   14.5   8.0   NNE   0.67  14.0   NNE   15.8   16.7   16.1  1015.4  0.00   0.0   0.006   0.000   26.4    52   15.7   26.6   9.46 1.1608    117    1    100.0    5 
30/08/15   7:50   16.5   16.6   16.5    88   14.5   9.0   NNE   0.75  14.0   NNE   15.4   16.7   15.6  1015.5  0.00   0.0   0.006   0.000   26.4    52   15.7   26.6   9.46 1.1609    116    1    100.0    5 
30/08/15   7:55   16.6   16.6   16.5    88   14.6   8.0   NNE   0.67  11.0    NE   15.9   16.8   16.2  1015.6  0.00   0.0   0.006   0.000   26.3    52   15.7   26.6   9.46 1.1613    118    1    100.0    5 
30/08/15   8:00   16.6   16.6   16.6    88   14.6   8.0   NNE   0.67  14.0   NNE   15.9   16.8   16.2  1015.7  0.00   0.0   0.006   0.000   26.3    52   15.7   26.6   9.46 1.1614    117    1    100.0    5 
30/08/15   8:05   16.6   16.6   16.6    88   14.6   9.0   NNE   0.75  13.0   NNE   15.4   16.8   15.7  1015.8  0.00   0.0   0.006   0.000   26.3    52   15.7   26.6   9.46 1.1615    117    1    100.0    5 
30/08/15   8:10   16.6   16.6   16.6    88   14.6   8.0   NNE   0.67  14.0   NNE   15.9   16.8   16.2  1015.8  0.00   0.0   0.006   0.000   26.3    52   15.7   26.6   9.46 1.1615    115    1    100.0    5 
30/08/15   8:15   16.6   16.6   16.6    88   14.6   9.0   NNE   0.75  14.0    NE   15.5   16.8   15.7  1015.8  0.00   0.0   0.006   0.000   26.3    52   15.7   26.6   9.46 1.1615    117    1    100.0    5 
30/08/15   8:20   16.7   16.7   16.6    88   14.7   7.0   NNE   0.58  12.0   NNE   16.5   16.9   16.7  1015.8  0.00   0.0   0.006   0.000   26.3    52   15.7   26.6   9.46 1.1615    117    1    100.0    5 
30/08/15   8:25   16.7   16.7   16.7    88   14.7   6.0   NNE   0.50  11.0   NNE   16.7   16.9   16.9  1015.7  0.00   0.0   0.006   0.000   26.3    52   15.7   26.6   9.46 1.1614    115    1    100.0    5 
30/08/15   8:30   16.8   16.8   16.7    88   14.8   5.0   NNE   0.42  10.0   NNE   16.8   17.1   17.1  1015.8  0.00   0.0   0.005   0.000   26.3    52   15.7   26.6   9.46 1.1615    117    1    100.0    5 
30/08/15   8:35   16.9   16.9   16.8    88   14.9   6.0   NNE   0.50  10.0     N   16.9   17.2   17.2  1015.7  0.00   0.0   0.005   0.000   26.3    52   15.7   26.6   9.46 1.1614    117    1    100.0    5 
30/08/15   8:40   16.9   16.9   16.9    87   14.8   6.0   NNE   0.50  10.0   NNE   16.9   17.2   17.2  1015.7  0.00   0.0   0.005   0.000   26.3    52   15.7   26.6   9.46 1.1614    117    1    100.0    5 
30/08/15   8:45   17.0   17.0   16.9    87   14.8   7.0   NNE   0.58  10.0     N   16.9   17.3   17.2  1015.7  0.00   0.0   0.005   0.000   26.3    52   15.6   26.5   9.46 1.1617    117    1    100.0    5 
30/08/15   8:50   17.1   17.1   17.0    87   14.9   7.0   NNE   0.58  11.0   NNE   16.9   17.3   17.2  1015.6  0.00   0.0   0.004   0.000   26.3    52   15.7   26.6   9.46 1.1613    117    1    100.0    5 
30/08/15   8:55   17.1   17.1   17.1    87   14.9   7.0   NNE   0.58  11.0   NNE   17.1   17.4   17.3  1015.7  0.00   0.0   0.004   0.000   26.3    52   15.6   26.5   9.46 1.1617    115    1    100.0    5 
30/08/15   9:00   17.2   17.2   17.1    87   15.0   7.0   NNE   0.58  13.0     N   17.1   17.5   17.4  1015.6  0.00   0.0   0.004   0.000   26.3    52   15.6   26.5   9.46 1.1616    118    1    100.0    5 
30/08/15   9:05   17.3   17.3   17.2    87   15.1   8.0   NNE   0.67  15.0   NNE   16.8   17.6   17.1  1015.6  0.00   0.0   0.004   0.000   26.3    52   15.6   26.5   9.46 1.1615    117    1    100.0    5 
30/08/15   9:10   17.4   17.4   17.3    87   15.2   9.0   NNE   0.75  16.0   NNE   16.4   17.7   16.8  1015.5  0.00   0.0   0.003   0.000   26.3    52   15.7   26.6   9.46 1.1612    117    1    100.0    5 
30/08/15   9:15   17.5   17.5   17.4    87   15.3   8.0   NNE   0.67  13.0   NNE   17.1   17.8   17.4  1015.5  0.00   0.0   0.003   0.000   26.3    52   15.7   26.6   9.46 1.1612    117    1    100.0    5 
30/08/15   9:20   17.6   17.6   17.5    87   15.4   7.0   NNE   0.58  13.0    NE   17.6   17.9   17.9  1015.4  0.00   0.0   0.003   0.000   26.3    52   15.7   26.6   9.46 1.1611    117    1    100.0    5 
30/08/15   9:25   17.7   17.7   17.6    86   15.3   7.0   NNE   0.58  11.0   NNE   17.7   18.0   18.0  1015.5  0.00   0.0   0.002   0.000   26.3    52   15.7   26.6   9.46 1.1611    117    1    100.0    5 
30/08/15   9:30   17.8   17.8   17.7    86   15.4   6.0   NNE   0.50  11.0    NE   17.8   18.1   18.1  1015.4  0.00   0.0   0.002   0.000   26.3    53   16.0   26.6   9.65 1.1607    117    1    100.0    5 
30/08/15   9:35   18.1   18.1   17.8    87   15.9   6.0   NNE   0.50  10.0     N   18.1   18.5   18.5  1015.5  0.00   0.0   0.001   0.000   26.4    53   16.0   26.6   9.65 1.1605    117    1    100.0    5 
30/08/15   9:40   18.3   18.3   18.1    86   15.9   5.0   NNE   0.42   9.0   NNE   18.3   18.7   18.7  1015.6  0.00   0.0   0.000   0.000   26.4    53   16.0   26.6   9.65 1.1607    117    1    100.0    5 
30/08/15   9:45   18.3   18.3   18.3    85   15.8   6.0   NNE   0.50  10.0   NNE   18.3   18.8   18.8  1015.6  0.00   0.0   0.000   0.000   26.4    53   16.0   26.6   9.65 1.1606    117    1    100.0    5 
30/08/15   9:50   18.4   18.4   18.3    85   15.9   7.0   NNE   0.58  12.0    NE   18.4   18.9   18.9  1015.6  0.00   0.0   0.000   0.000   26.4    53   16.1   26.7   9.65 1.1604    117    1    100.0    5 
30/08/15   9:55   18.4   18.4   18.4    85   15.9   6.0   NNE   0.50  10.0   NNE   18.4   18.9   18.9  1015.7  0.00   0.0   0.000   0.000   26.4    53   16.1   26.7   9.65 1.1604    117    1    100.0    5 
30/08/15  10:00   18.5   18.5   18.4    85   15.9   5.0     N   0.42   9.0   NNW   18.5   19.0   19.0  1015.8  0.00   0.0   0.000   0.001   26.5    53   16.1   26.8   9.65 1.1602    118    1    100.0    5 
30/08/15  10:05   18.5   18.5   18.4    85   15.9   6.0   NNE   0.50  10.0     N   18.5   19.0   19.0  1015.7  0.00   0.0   0.000   0.001   26.5    53   16.1   26.8   9.65 1.1602    115    1    100.0    5 
30/08/15  10:10   18.5   18.5   18.4    85   15.9   6.0     N   0.50  10.0     N   18.5   19.0   19.0  1015.7  0.00   0.0   0.000   0.001   26.6    53   16.2   26.8   9.65 1.1599    117    1    100.0    5 
30/08/15  10:15   18.6   18.6   18.5    85   16.0   5.0   NNE   0.42   8.0   NNE   18.6   19.1   19.1  1015.7  0.00   0.0   0.000   0.001   26.6    53   16.2   26.8   9.65 1.1599    117    1    100.0    5 
30/08/15  10:20   18.7   18.7   18.6    85   16.1   6.0   NNE   0.50  11.0   NNE   18.7   19.2   19.2  1015.7  0.00   0.0   0.000   0.001   26.6    53   16.2   26.8   9.65 1.1599    117    1    100.0    5 
30/08/15  10:25   18.8   18.8   18.7    85   16.3   7.0   NNE   0.58  10.0   NNE   18.8   19.4   19.4  1015.6  0.00   0.0   0.000   0.002   26.6    53   16.2   26.8   9.65 1.1598    117    1    100.0    5 
30/08/15  10:30   19.0   19.0   18.8    85   16.4   6.0   NNE   0.50  11.0   NNE   19.0   19.6   19.6  1015.6  0.00   0.0   0.000   0.002   26.6    53   16.2   26.9   9.65 1.1595    117    1    100.0    5 
30/08/15  10:35   19.2   19.2   19.0    85   16.6   4.0   NNE   0.33  11.0     N   19.2   19.9   19.9  1015.6  0.00   0.0   0.000   0.003   26.6    53   16.2   26.9   9.65 1.1595    117    1    100.0    5 
30/08/15  10:40   19.2   19.2   19.2    84   16.5   8.0   NNE   0.67  12.0   NNE   18.9   19.8   19.5  1015.6  0.00   0.0   0.000   0.003   26.6    53   16.2   26.9   9.65 1.1595    117    1    100.0    5 
30/08/15  10:45   19.3   19.3   19.2    84   16.5   6.0   NNE   0.50   9.0   NNE   19.3   19.9   19.9  1015.6  0.00   0.0   0.000   0.003   26.6    53   16.2   26.9   9.65 1.1594    117    1    100.0    5 
30/08/15  10:50   19.4   19.4   19.3    85   16.9   6.0   NNE   0.50  12.0    NE   19.4   20.2   20.2  1015.5  0.20   0.0   0.000   0.004   26.7    53   16.3   26.9   9.65 1.1590    116    1    100.0    5 
30/08/15  10:55   19.6   19.6   19.4    84   16.8   7.0   NNE   0.58  11.0    NE   19.6   20.3   20.3  1015.5  0.00   0.0   0.000   0.004   26.7    53   16.3   26.9   9.65 1.1590    117    1    100.0    5 
30/08/15  11:00   19.9   19.9   19.6    85   17.3   6.0   NNE   0.50  10.0   NNE   19.9   20.7   20.7  1015.4  0.00   0.0   0.000   0.005   26.7    53   16.3   26.9   9.65 1.1589    117    1    100.0    5 
30/08/15  11:05   20.2   20.2   19.9    84   17.4   6.0   NNE   0.50  10.0    NE   20.2   21.1   21.1  1015.5  0.00   0.0   0.000   0.007   26.7    53   16.3   27.0   9.65 1.1588    118    1    100.0    5 
30/08/15  11:10   20.4   20.4   20.2    83   17.5   6.0    NE   0.50  12.0    NE   20.4   21.3   21.3  1015.5  0.00   0.0   0.000   0.007   26.7    53   16.3   27.0   9.65 1.1588    116    1    100.0    5 
30/08/15  11:15   20.8   20.8   20.4    83   17.8   6.0    NE   0.50  10.0   ENE   20.8   21.6   21.6  1015.5  0.00   0.0   0.000   0.008   26.7    53   16.3   27.0   9.65 1.1587    117    1    100.0    5 
30/08/15  11:20   21.1   21.1   20.8    82   17.9   7.0   NNE   0.58  12.0   NNE   21.1   21.8   21.8  1015.5  0.00   0.0   0.000   0.010   26.8    53   16.4   27.1   9.65 1.1585    117    1    100.0    5 
30/08/15  11:25   21.3   21.3   21.1    81   17.9   7.0   NNE   0.58  10.0    NE   21.3   21.9   21.9  1015.5  0.00   0.0   0.000   0.010   26.8    53   16.4   27.1   9.65 1.1585    116    1    100.0    5 
30/08/15  11:30   21.4   21.4   21.3    81   18.0   6.0   NNE   0.50  10.0   NNE   21.4   22.2   22.2  1015.4  0.00   0.0   0.000   0.011   26.8    53   16.4   27.1   9.65 1.1584    117    1    100.0    5 
30/08/15  11:35   21.6   21.6   21.5    80   18.0   6.0   NNE   0.50  10.0   NNE   21.6   22.3   22.3  1015.4  0.00   0.0   0.000   0.011   26.8    53   16.4   27.1   9.64 1.1581    117    1    100.0    5 
30/08/15  11:40   21.6   21.6   21.6    80   18.0   5.0   NNE   0.42   9.0   NNE   21.6   22.3   22.3  1015.5  0.00   0.0   0.000   0.011   26.8    54   16.7   27.2   9.75 1.1578    117    1    100.0    5 
30/08/15  11:45   21.6   21.6   21.6    80   18.0   3.0    NE   0.25   7.0   NNE   21.6   22.3   22.3  1015.5  0.00   0.0   0.000   0.011   26.9    54   16.8   27.3   9.75 1.1575    116    1    100.0    5 
30/08/15  11:50   21.7   21.7   21.6    80   18.1   4.0    NE   0.33   8.0    NE   21.7   22.4   22.4  1015.5  0.00   0.0   0.000   0.012   26.9    54   16.8   27.3   9.75 1.1575    117    1    100.0    5 
30/08/15  11:55   21.8   21.8   21.7    80   18.2   5.0   NNE   0.42  10.0    NE   21.8   22.5   22.5  1015.5  0.00   0.0   0.000   0.012   26.9    55   17.1   27.3   9.85 1.1571    117    1    100.0    5 
30/08/15  12:00   21.8   21.8   21.8    80   18.2   3.0   NNE   0.25   6.0   NNE   21.8   22.6   22.6  1015.5  0.00   0.0   0.000   0.012   26.9    55   17.1   27.3   9.85 1.1571    117    1    100.0    5 
30/08/15  12:05   21.8   21.8   21.8    79   18.0   4.0    NE   0.33   8.0    NE   21.8   22.4   22.4  1015.5  0.00   0.0   0.000   0.012   26.9    55   17.1   27.3   9.85 1.1571    117    1    100.0    5 
30/08/15  12:10   21.7   21.8   21.7    80   18.1   4.0    NE   0.33   8.0    NE   21.7   22.4   22.4  1015.5  0.00   0.0   0.000   0.012   26.9    55   17.1   27.3   9.85 1.1571    116    1    100.0    5 
30/08/15  12:15   21.7   21.7   21.7    80   18.1   3.0    NE   0.25   7.0   ENE   21.7   22.4   22.4  1015.5  0.00   0.0   0.000   0.012   26.9    55   17.1   27.3   9.85 1.1572    115    1    100.0    5 
30/08/15  12:20   21.7   21.7   21.7    80   18.1   2.0   NNE   0.17  10.0    NE   21.7   22.4   22.4  1015.5  0.00   0.0   0.000   0.012   26.9    55   17.1   27.4   9.85 1.1568    117    1    100.0    5 
30/08/15  12:25   21.7   21.7   21.7    80   18.1   2.0   NNE   0.17   5.0   NNE   21.7   22.4   22.4  1015.4  0.00   0.0   0.000   0.012   26.9    55   17.1   27.3   9.85 1.1570    117    1    100.0    5 
30/08/15  12:30   21.8   21.8   21.7    80   18.2   2.0   NNE   0.17   5.0   NNE   21.8   22.5   22.5  1015.4  0.00   0.0   0.000   0.012   26.9    55   17.1   27.4   9.85 1.1567    116    1    100.0    5 
30/08/15  12:35   21.9   21.9   21.8    80   18.3   2.0    NE   0.17   6.0     N   21.9   22.7   22.7  1015.5  0.00   0.0   0.000   0.013   26.9    55   17.1   27.3   9.85 1.1571    117    1    100.0    5 
30/08/15  12:40   21.9   21.9   21.9    80   18.3   5.0   NNE   0.42   8.0   NNE   21.9   22.6   22.6  1015.4  0.00   0.0   0.000   0.012   26.9    55   17.1   27.4   9.85 1.1567    117    1    100.0    5 
30/08/15  12:45   21.9   21.9   21.9    80   18.3   5.0   NNE   0.42   9.0    NE   21.9   22.7   22.7  1015.4  0.00   0.0   0.000   0.013   26.9    55   17.1   27.4   9.85 1.1567    116    1    100.0    5 
30/08/15  12:50   21.9   21.9   21.9    80   18.3   5.0   NNE   0.42   8.0   NNE   21.9   22.6   22.6  1015.4  0.00   0.0   0.000   0.012   26.9    55   17.1   27.4   9.85 1.1567    117    1    100.0    5 
30/08/15  12:55   21.9   21.9   21.9    79   18.1   3.0   NNE   0.25   7.0   NNE   21.9   22.7   22.7  1015.4  0.00   0.0   0.000   0.013   26.9    55   17.1   27.4   9.85 1.1567    117    1    100.0    5 
30/08/15  13:00   22.1   22.1   21.9    79   18.2   4.0   NNW   0.33   7.0   NNW   22.1   22.8   22.8  1015.3  0.00   0.0   0.000   0.013   26.9    55   17.1   27.4   9.85 1.1566    117    1    100.0    5 
30/08/15  13:05   22.2   22.2   22.1    79   18.4   5.0   NNE   0.42   9.0   NNE   22.2   22.9   22.9  1015.4  0.00   0.0   0.000   0.013   27.0    55   17.2   27.4   9.85 1.1564    116    1    100.0    5 
30/08/15  13:10   22.2   22.2   22.2    79   18.4   5.0   NNE   0.42   8.0   NNW   22.2   22.9   22.9  1015.4  0.00   0.0   0.000   0.014   27.0    55   17.2   27.4   9.85 1.1565    118    1    100.0    5 
30/08/15  13:15   22.3   22.3   22.2    79   18.5   4.0     N   0.33   7.0    NE   22.3   23.1   23.1  1015.4  0.00   0.0   0.000   0.014   27.1    55   17.2   27.5   9.85 1.1562    116    1    100.0    5 
30/08/15  13:20   22.4   22.4   22.3    78   18.4   4.0     N   0.33   7.0   NNW   22.4   23.2   23.2  1015.4  0.00   0.0   0.000   0.014   27.1    55   17.2   27.5   9.85 1.1562    117    1    100.0    5 
30/08/15  13:25   22.5   22.5   22.4    78   18.5   3.0   NNE   0.25   9.0     N   22.5   23.3   23.3  1015.5  0.00   0.0   0.000   0.014   27.1    55   17.2   27.5   9.85 1.1562    117    1    100.0    5 
30/08/15  13:30   22.6   22.6   22.5    78   18.5   5.0   NNE   0.42   8.0    NW   22.6   23.4   23.4  1015.4  0.00   0.0   0.000   0.015   27.1    55   17.3   27.6   9.85 1.1558    117    1    100.0    5 
30/08/15  13:35   22.7   22.7   22.6    77   18.4   5.0     N   0.42  11.0     N   22.7   23.5   23.5  1015.4  0.00   0.0   0.000   0.015   27.1    55   17.3   27.6   9.85 1.1558    117    1    100.0    5 
30/08/15  13:40   22.7   22.7   22.7    77   18.5   5.0     N   0.42   9.0   NNE   22.7   23.6   23.6  1015.4  0.00   0.0   0.000   0.015   27.1    56   17.6   27.7  10.05 1.1554    117    1    100.0    5 
30/08/15  13:45   23.0   23.0   22.7    78   19.0   5.0   NNE   0.42  10.0   NNE   23.0   24.0   24.0  1015.3  0.00   0.0   0.000   0.016   27.2    55   17.3   27.7   9.85 1.1554    117    1    100.0    5 
30/08/15  13:50   23.2   23.2   23.0    77   19.0   6.0   NNE   0.50  10.0    NE   23.2   24.3   24.3  1015.3  0.00   0.0   0.000   0.017   27.2    55   17.4   27.7   9.85 1.1551    117    1    100.0    5 
30/08/15  13:55   23.3   23.3   23.2    76   18.9   5.0     N   0.42   9.0   NNE   23.3   24.4   24.4  1015.2  0.00   0.0   0.000   0.017   27.2    55   17.4   27.7   9.85 1.1550    116    1    100.0    5 
30/08/15  14:00   23.4   23.4   23.3    76   18.9   5.0     N   0.42   9.0     N   23.4   24.4   24.4  1015.2  0.00   0.0   0.000   0.018   27.2    55   17.4   27.7   9.85 1.1550    117    1    100.0    5 
30/08/15  14:05   23.4   23.4   23.4    75   18.8   5.0   NNW   0.42  10.0     N   23.4   24.5   24.5  1015.2  0.00   0.0   0.000   0.018   27.2    55   17.4   27.7   9.85 1.1550    115    1    100.0    5 
30/08/15  14:10   23.5   23.6   23.4    75   18.8   6.0   NNE   0.50  10.0   NNE   23.5   24.6   24.6  1015.2  0.00   0.0   0.000   0.018   27.3    55   17.4   27.8   9.85 1.1547    117    1    100.0    5 
30/08/15  14:15   23.4   23.5   23.4    75   18.7   5.0   NNE   0.42  10.0     N   23.4   24.4   24.4  1015.2  0.00   0.0   0.000   0.018   27.3    55   17.4   27.8   9.85 1.1547    118    1    100.0    5 
30/08/15  14:20   23.4   23.4   23.4    76   19.0   4.0     N   0.33   8.0   NNW   23.4   24.6   24.6  1015.1  0.00   0.0   0.000   0.018   27.3    55   17.5   27.9   9.85 1.1544    117    1    100.0    5 
30/08/15  14:25   23.4   23.5   23.4    75   18.8   5.0   NNE   0.42  10.0   NNE   23.4   24.5   24.5  1015.2  0.00   0.0   0.000   0.018   27.4    56   17.8   28.1  10.05 1.1537    117    1    100.0    5 
30/08/15  14:30   23.4   23.4   23.4    75   18.7   6.0     N   0.50   9.0     N   23.4   24.4   24.4  1015.1  0.00   0.0   0.000   0.018   27.4    55   17.5   28.0   9.85 1.1541    117    1    100.0    5 
30/08/15  14:35   23.3   23.4   23.3    75   18.6   6.0   NNE   0.50  10.0     N   23.3   24.3   24.3  1015.1  0.00   0.0   0.000   0.017   27.4    55   17.5   28.0   9.85 1.1541    117    1    100.0    5 
30/08/15  14:40   23.2   23.3   23.1    76   18.7   4.0   NNW   0.33   8.0   NNW   23.2   24.2   24.2  1015.1  0.00   0.0   0.000   0.017   27.4    55   17.6   28.1   9.85 1.1538    117    1    100.0    5 
30/08/15  14:45   23.1   23.2   23.1    76   18.6   7.0   NNE   0.58  11.0   NNE   23.1   24.0   24.0  1015.1  0.00   0.0   0.000   0.016   27.4    55   17.6   28.1   9.85 1.1538    117    1    100.0    5 
30/08/15  14:50   23.1   23.1   23.0    76   18.6   6.0   NNE   0.50  11.0    NE   23.1   24.0   24.0  1015.1  0.00   0.0   0.000   0.016   27.4    55   17.6   28.1   9.85 1.1538    117    1    100.0    5 
30/08/15  14:55   23.1   23.1   23.1    77   18.9   5.0   NNE   0.42  10.0   NNE   23.1   24.1   24.1  1015.0  0.00   0.0   0.000   0.017   27.5    55   17.7   28.2   9.85 1.1534    116    1    100.0    5 
30/08/15  15:00   23.2   23.2   23.1    76   18.7   5.0   NNE   0.42   9.0   NNE   23.2   24.2   24.2  1015.0  0.00   0.0   0.000   0.017   27.5    55   17.7   28.2   9.85 1.1534    117    1    100.0    5 
30/08/15  15:05   23.4   23.4   23.2    77   19.2   7.0   NNE   0.58  10.0   NNE   23.4   24.6   24.6  1015.0  0.00   0.0   0.000   0.018   27.5    55   17.7   28.2   9.85 1.1533    116    1    100.0    5 
30/08/15  15:10   23.7   23.7   23.4    76   19.2   6.0   NNE   0.50  10.0   NNE   23.7   24.8   24.8  1014.9  0.00   0.0   0.000   0.019   27.5    55   17.7   28.2   9.85 1.1533    116    1    100.0    5 
30/08/15  15:15   23.7   23.7   23.7    76   19.2   5.0   NNE   0.42   9.0     N   23.7   24.8   24.8  1014.9  0.00   0.0   0.000   0.019   27.5    55   17.7   28.2   9.85 1.1532    118    1    100.0    5 
30/08/15  15:20   23.7   23.7   23.7    75   19.0   5.0   NNE   0.42   9.0   NNE   23.7   24.8   24.8  1014.9  0.00   0.0   0.000   0.019   27.6    55   17.7   28.2   9.85 1.1530    117    1    100.0    5 
30/08/15  15:25   23.6   23.7   23.6    75   18.9   6.0   NNE   0.50   8.0   NNE   23.6   24.7   24.7  1014.9  0.00   0.0   0.000   0.018   27.6    55   17.8   28.3   9.85 1.1527    116    1    100.0    5 
30/08/15  15:30   23.6   23.6   23.6    76   19.1   6.0   NNE   0.50   9.0   NNE   23.6   24.7   24.7  1014.9  0.00   0.0   0.000   0.018   27.6    55   17.8   28.3   9.85 1.1527    117    1    100.0    5 
30/08/15  15:35   23.5   23.6   23.5    76   19.0   6.0   NNE   0.50   9.0   NNE   23.5   24.6   24.6  1015.0  0.00   0.0   0.000   0.018   27.6    55   17.8   28.3   9.85 1.1527    117    1    100.0    5 
30/08/15  15:40   23.6   23.6   23.5    76   19.1   6.0   NNE   0.50   9.0   NNE   23.6   24.8   24.8  1014.8  0.00   0.0   0.000   0.018   27.7    55   17.8   28.4   9.85 1.1523    116    1    100.0    5 
30/08/15  15:45   23.5   23.6   23.5    75   18.8   7.0   NNE   0.58  11.0   NNE   23.5   24.6   24.6  1014.9  0.00   0.0   0.000   0.018   27.7    55   17.8   28.4   9.85 1.1523    117    1    100.0    5 
30/08/15  15:50   23.6   23.6   23.5    76   19.1   5.0   NNE   0.42  10.0   NNE   23.6   24.8   24.8  1014.8  0.00   0.0   0.000   0.018   27.7    55   17.9   28.5   9.85 1.1520    117    1    100.0    5 
30/08/15  15:55   23.6   23.7   23.6    75   18.9   7.0   NNE   0.58  11.0     N   23.6   24.7   24.7  1014.7  0.00   0.0   0.000   0.018   27.7    55   17.9   28.5   9.85 1.1519    117    1    100.0    5 
30/08/15  16:00   23.3   23.6   23.3    75   18.7   7.0     N   0.58  10.0     N   23.3   24.4   24.4  1014.6  0.00   0.0   0.000   0.017   27.7    55   17.9   28.5   9.85 1.1518    116    1    100.0    5 
30/08/15  16:05   23.2   23.3   23.2    76   18.7   6.0   NNE   0.50  10.0   NNE   23.2   24.2   24.2  1014.7  0.00   0.0   0.000   0.017   27.7    55   17.9   28.5   9.85 1.1519    117    1    100.0    5 
30/08/15  16:10   22.9   23.2   22.9    76   18.5   4.0   NNE   0.33   9.0     N   22.9   23.9   23.9  1014.8  0.00   0.0   0.000   0.016   27.7    55   17.9   28.5   9.85 1.1519    117    1    100.0    5 
30/08/15  16:15   22.8   22.9   22.8    76   18.4   6.0   NNE   0.50  10.0   NNE   22.8   23.7   23.7  1014.8  0.00   0.0   0.000   0.016   27.7    55   17.9   28.5   9.85 1.1519    116    1    100.0    5 
30/08/15  16:20   22.7   22.8   22.7    77   18.4   7.0   NNE   0.58  11.0    NE   22.7   23.5   23.5  1014.8  0.00   0.0   0.000   0.015   27.7    55   17.9   28.5   9.85 1.1519    118    1    100.0    5 
30/08/15  16:25   22.6   22.7   22.6    78   18.5   6.0   NNE   0.50  11.0   NNE   22.6   23.4   23.4  1014.7  0.00   0.0   0.000   0.015   27.7    55   17.9   28.5   9.85 1.1518    117    1    100.0    5 
30/08/15  16:30   22.3   22.6   22.3    78   18.3   8.0   NNE   0.67  12.0   NNE   22.1   23.1   22.8  1014.7  0.00   0.0   0.000   0.014   27.7    55   17.9   28.5   9.85 1.1518    117    1    100.0    5 
30/08/15  16:35   22.2   22.3   22.2    78   18.2   6.0   NNE   0.50  12.0     N   22.2   22.9   22.9  1014.7  0.00   0.0   0.000   0.014   27.7    55   17.9   28.5   9.85 1.1518    116    1    100.0    5 
30/08/15  16:40   22.2   22.2   22.2    79   18.4   8.0     N   0.67  12.0     N   21.9   22.9   22.6  1014.7  0.00   0.0   0.000   0.013   27.7    55   17.9   28.5   9.85 1.1518    117    1    100.0    5 
30/08/15  16:45   22.1   22.2   22.1    79   18.3   7.0   NNE   0.58  13.0   NNE   22.1   22.8   22.8  1014.7  0.00   0.0   0.000   0.013   27.7    55   17.9   28.5   9.85 1.1518    117    1    100.0    5 
30/08/15  16:50   22.0   22.1   22.0    79   18.2   8.0     N   0.67  11.0   NNE   21.7   22.7   22.4  1014.7  0.00   0.0   0.000   0.013   27.7    55   17.9   28.5   9.85 1.1519    116    1    100.0    5 
30/08/15  16:55   21.9   22.0   21.9    79   18.1   7.0   NNE   0.58  12.0     N   21.9   22.7   22.7  1014.6  0.00   0.0   0.000   0.013   27.7    56   18.1   28.6  10.05 1.1513    117    1    100.0    5 
30/08/15  17:00   21.9   21.9   21.9    79   18.1   7.0   NNE   0.58  11.0   NNE   21.9   22.6   22.6  1014.6  0.00   0.0   0.000   0.012   27.7    56   18.1   28.6  10.05 1.1513    117    1    100.0    5 
30/08/15  17:05   21.8   21.9   21.8    80   18.2   7.0   NNE   0.58  11.0     N   21.8   22.6   22.6  1014.7  0.00   0.0   0.000   0.012   27.8    56   18.2   28.7  10.05 1.1511    117    1    100.0    5 
30/08/15  17:10   21.8   21.8   21.8    80   18.2   7.0   NNE   0.58  11.0   NNE   21.8   22.6   22.6  1014.7  0.00   0.0   0.000   0.012   27.8    56   18.2   28.7  10.05 1.1509    116    1    100.0    5 
30/08/15  17:15   21.8   21.8   21.8    80   18.2   7.0   NNE   0.58  12.0     N   21.8   22.5   22.5  1014.8  0.00   0.0   0.000   0.012   27.9    56   18.3   28.8  10.05 1.1506    117    1    100.0    5 
30/08/15  17:20   21.6   21.8   21.6    80   18.0   8.0   NNE   0.67  11.0   NNE   21.3   22.3   22.1  1014.8  0.00   0.0   0.000   0.011   27.9    55   18.1   28.8   9.85 1.1508    118    1    100.0    5 
30/08/15  17:25   21.5   21.6   21.5    80   17.9   8.0     N   0.67  14.0   NNE   21.2   22.2   21.9  1014.8  0.00   0.0   0.000   0.011   27.9    55   18.1   28.8   9.85 1.1508    116    1    100.0    5 
30/08/15  17:30   21.4   21.5   21.4    80   17.8   7.0     N   0.58  12.0   NNE   21.4   22.1   22.1  1014.8  0.00   0.0   0.000   0.011   28.0    55   18.1   28.9   9.85 1.1505    117    1    100.0    5 
30/08/15  17:35   21.4   21.4   21.3    81   18.0   7.0     N   0.58  12.0     N   21.4   22.1   22.1  1014.8  0.00   0.0   0.000   0.011   28.1    55   18.2   29.0   9.85 1.1503    117    1    100.0    5 
30/08/15  17:40   21.3   21.3   21.3    81   17.9   8.0     N   0.67  14.0     N   21.0   21.9   21.7  1014.7  0.00   0.0   0.000   0.010   28.1    55   18.2   29.1   9.85 1.1498    116    1    100.0    5 
30/08/15  17:45   21.3   21.3   21.3    81   17.9   9.0   NNE   0.75  13.0   NNE   20.5   21.9   21.2  1014.7  0.00   0.0   0.000   0.010   28.2    55   18.3   29.1   9.85 1.1496    117    1    100.0    5 
30/08/15  17:50   21.2   21.3   21.2    81   17.8   8.0     N   0.67  13.0     N   20.9   21.9   21.6  1014.6  0.00   0.0   0.000   0.010   28.2    55   18.3   29.1   9.85 1.1494    116    1    100.0    5 
30/08/15  17:55   21.2   21.2   21.2    81   17.8   8.0     N   0.67  13.0     N   20.9   21.9   21.6  1014.7  0.00   0.0   0.000   0.010   28.2    55   18.3   29.2   9.85 1.1492    117    1    100.0    5 
30/08/15  18:00   21.1   21.2   21.1    81   17.7   8.0   NNE   0.67  14.0   NNE   20.8   21.8   21.5  1014.7  0.00   0.0   0.000   0.010   28.2    55   18.3   29.2   9.85 1.1492    117    1    100.0    5 
30/08/15  18:05   21.0   21.1   21.0    81   17.6   6.0   NNE   0.50  12.0   NNE   21.0   21.7   21.7  1014.8  0.00   0.0   0.000   0.009   28.3    55   18.4   29.3   9.85 1.1491    117    1    100.0    5 
30/08/15  18:10   20.9   21.0   20.9    82   17.8   7.0     N   0.58  12.0   NNE   20.9   21.7   21.7  1014.8  0.00   0.0   0.000   0.009   28.3    55   18.4   29.4   9.85 1.1487    117    1    100.0    5 
30/08/15  18:15   20.9   21.0   20.9    82   17.8   9.0   NNE   0.75  14.0   NNE   20.2   21.7   20.9  1014.6  0.00   0.0   0.000   0.009   28.4    55   18.5   29.5   9.85 1.1483    117    1    100.0    5 
30/08/15  18:20   20.8   20.9   20.8    82   17.6   8.0   NNE   0.67  12.0   NNE   20.5   21.6   21.3  1014.7  0.00   0.0   0.000   0.009   28.4    55   18.5   29.5   9.85 1.1483    117    1    100.0    5 
30/08/15  18:25   20.7   20.8   20.7    82   17.5   7.0   NNE   0.58  11.0   NNE   20.7   21.6   21.6  1014.9  0.00   0.0   0.000   0.008   28.4    55   18.5   29.5   9.85 1.1486    118    1    100.0    5 
30/08/15  18:30   20.7   20.7   20.7    82   17.5   6.0   NNE   0.50  11.0   NNE   20.7   21.5   21.5  1015.0  0.00   0.0   0.000   0.008   28.4    55   18.5   29.6   9.85 1.1484    117    1    100.0    5 
30/08/15  18:35   20.6   20.7   20.6    82   17.4   6.0   NNE   0.50  12.0   NNE   20.6   21.5   21.5  1015.0  0.00   0.0   0.000   0.008   28.4    54   18.2   29.5   9.75 1.1489    117    1    100.0    5 
30/08/15  18:40   20.6   20.6   20.5    83   17.6   7.0   NNE   0.58  13.0   NNE   20.6   21.5   21.5  1015.0  0.00   0.0   0.000   0.008   28.5    54   18.3   29.6   9.75 1.1486    117    1    100.0    5 
30/08/15  18:45   20.4   20.5   20.4    83   17.5   6.0   NNE   0.50  11.0   NNE   20.4   21.3   21.3  1015.0  0.00   0.0   0.000   0.007   28.5    54   18.3   29.6   9.75 1.1485    116    1    100.0    5 
30/08/15  18:50   20.3   20.4   20.3    83   17.3   7.0   NNE   0.58  12.0   NNE   20.3   21.2   21.2  1014.8  0.00   0.0   0.000   0.007   28.6    54   18.3   29.7   9.75 1.1481    116    1    100.0    5 
30/08/15  18:55   20.3   20.3   20.3    83   17.3   7.0   NNE   0.58  11.0   NNE   20.3   21.2   21.2  1014.7  0.00   0.0   0.000   0.007   28.6    54   18.3   29.7   9.75 1.1479    117    1    100.0    5 
30/08/15  19:00   20.2   20.3   20.2    83   17.2   5.0     N   0.42   9.0     N   20.2   21.1   21.1  1014.7  0.00   0.0   0.000   0.007   28.6    54   18.3   29.7   9.75 1.1479    117    1    100.0    5 
30/08/15  19:05   20.2   20.2   20.2    83   17.2   8.0   NNE   0.67  12.0     N   19.8   21.0   20.6  1014.5  0.00   0.0   0.000   0.006   28.6    54   18.3   29.7   9.75 1.1477    117    1    100.0    5 
30/08/15  19:10   20.0   20.2   20.0    83   17.0   8.0   NNE   0.67  13.0   NNE   19.6   20.8   20.4  1014.6  0.00   0.0   0.000   0.006   28.6    54   18.4   29.8   9.75 1.1475    117    1    100.0    5 
30/08/15  19:15   19.9   20.0   19.9    84   17.2   7.0   NNE   0.58  14.0   NNE   19.9   20.7   20.7  1014.9  0.00   0.0   0.000   0.006   28.6    54   18.4   29.8   9.75 1.1478    114    1    100.0    5 
30/08/15  19:20   19.9   19.9   19.9    84   17.1   5.0   NNE   0.42   8.0     N   19.9   20.7   20.7  1014.6  0.00   0.0   0.000   0.005   28.6    54   18.4   29.8   9.75 1.1476    117    1    100.0    5 
30/08/15  19:25   19.8   19.9   19.8    84   17.0   7.0   NNE   0.58  12.0   NNE   19.8   20.6   20.6  1014.5  0.00   0.0   0.000   0.005   28.6    54   18.4   29.8   9.75 1.1474    117    1    100.0    5 
30/08/15  19:30   19.7   19.8   19.7    84   16.9   7.0   NNE   0.58  13.0   NNE   19.7   20.5   20.5  1014.5  0.00   0.0   0.000   0.005   28.6    54   18.4   29.8   9.75 1.1474    118    1    100.0    5 
30/08/15  19:35   19.6   19.7   19.6    85   17.0   7.0   NNE   0.58  13.0     N   19.6   20.4   20.4  1014.4  0.00   0.0   0.000   0.004   28.6    54   18.4   29.8   9.75 1.1473    117    1    100.0    5 
30/08/15  19:40   19.5   19.6   19.5    85   16.9   8.0   NNE   0.67  14.0    NE   19.2   20.2   19.9  1014.3  0.00   0.0   0.000   0.004   28.6    54   18.4   29.8   9.75 1.1471    117    1    100.0    5 
30/08/15  19:45   19.4   19.5   19.4    85   16.9   8.0   NNE   0.67  12.0   NNE   19.1   20.2   19.8  1014.2  0.00   0.0   0.000   0.004   28.6    54   18.4   29.8   9.75 1.1470    117    1    100.0    5 
30/08/15  19:50   19.3   19.4   19.3    85   16.7   8.0   NNE   0.67  16.0   NNE   19.0   20.0   19.7  1014.2  0.00   0.0   0.000   0.003   28.6    54   18.4   29.8   9.75 1.1470    117    1    100.0    5 
30/08/15  19:55   19.3   19.3   19.3    85   16.7   6.0   NNE   0.50  10.0   NNE   19.3   19.9   19.9  1014.4  0.00   0.0   0.000   0.003   28.6    54   18.4   29.8   9.75 1.1473    117    1    100.0    5 
30/08/15  20:00   19.2   19.3   19.2    86   16.8   7.0   NNE   0.58  12.0   NNE   19.2   19.9   19.9  1014.3  0.00   0.0   0.000   0.003   28.7    54   18.4   29.9   9.75 1.1469    116    1    100.0    5 
30/08/15  20:05   19.2   19.2   19.2    86   16.8   5.0   NNE   0.42  10.0   NNE   19.2   19.8   19.8  1014.4  0.00   0.0   0.000   0.003   28.7    54   18.4   29.9   9.75 1.1470    117    1    100.0    5 
30/08/15  20:10   19.2   19.2   19.2    86   16.8   4.0   NNE   0.33   8.0    NE   19.2   19.8   19.8  1014.5  0.00   0.0   0.000   0.003   28.6    54   18.4   29.8   9.75 1.1474    117    1    100.0    5 
30/08/15  20:15   19.2   19.2   19.2    86   16.8   5.0   NNE   0.42   8.0   NNE   19.2   19.8   19.8  1014.4  0.00   0.0   0.000   0.003   28.7    54   18.4   29.9   9.75 1.1470    117    1    100.0    5 
30/08/15  20:20   19.1   19.2   19.1    86   16.7   8.0   NNE   0.67  14.0    NE   18.8   19.8   19.4  1014.1  0.00   0.0   0.000   0.003   28.7    54   18.4   29.9   9.75 1.1467    117    1    100.0    5 
30/08/15  20:25   19.0   19.1   19.0    86   16.6   7.0   NNE   0.58  11.0   NNE   19.0   19.6   19.6  1014.1  0.00   0.0   0.000   0.002   28.7    54   18.4   29.9   9.75 1.1467    116    1    100.0    5 
30/08/15  20:30   18.9   19.0   18.9    86   16.5   7.0   NNE   0.58  12.0    NE   18.9   19.6   19.6  1013.9  0.00   0.0   0.000   0.002   28.7    54   18.4   29.9   9.75 1.1465    118    1    100.0    5 
30/08/15  20:35   18.8   18.9   18.8    87   16.6   7.0   NNE   0.58  12.0   NNE   18.8   19.4   19.4  1014.0  0.00   0.0   0.000   0.002   28.7    54   18.4   29.9   9.75 1.1465    116    1    100.0    5 
30/08/15  20:40   18.8   18.8   18.8    87   16.6   6.0   NNE   0.50  10.0     N   18.8   19.4   19.4  1014.2  0.00   0.0   0.000   0.002   28.7    53   18.1   29.8   9.58 1.1472    116    1    100.0    5 
30/08/15  20:45   18.8   18.8   18.8    87   16.6   7.0   NNE   0.58  10.0   NNE   18.8   19.4   19.4  1014.2  0.00   0.0   0.000   0.002   28.7    54   18.4   29.9   9.75 1.1467    117    1    100.0    5 
30/08/15  20:50   18.7   18.8   18.7    87   16.5   7.0   NNE   0.58  13.0     N   18.7   19.3   19.3  1014.3  0.00   0.0   0.000   0.001   28.7    53   18.1   29.8   9.58 1.1473    117    1    100.0    5 
30/08/15  20:55   18.7   18.7   18.7    87   16.5   5.0   NNE   0.42   8.0   NNE   18.7   19.2   19.2  1014.4  0.00   0.0   0.000   0.001   28.7    53   18.1   29.8   9.58 1.1475    117    1    100.0    5 
30/08/15  21:00   18.6   18.7   18.6    87   16.4   6.0   NNE   0.50  10.0     N   18.6   19.2   19.2  1014.3  0.00   0.0   0.000   0.001   28.7    53   18.1   29.8   9.58 1.1474    117    1    100.0    5 
30/08/15  21:05   18.6   18.7   18.6    87   16.3   6.0   NNE   0.50  12.0     N   18.6   19.1   19.1  1014.4  0.00   0.0   0.000   0.001   28.7    53   18.1   29.8   9.58 1.1475    117    1    100.0    5 
30/08/15  21:10   18.5   18.6   18.5    87   16.3   5.0    NE   0.42  10.0   NNE   18.5   19.1   19.1  1014.5  0.00   0.0   0.000   0.001   28.7    53   18.1   29.8   9.58 1.1475    117    1    100.0    5 
30/08/15  21:15   18.5   18.5   18.4    88   16.5   6.0   NNE   0.50  12.0   NNE   18.5   19.1   19.1  1014.4  0.00   0.0   0.000   0.001   28.6    53   18.1   29.7   9.58 1.1477    117    1    100.0    5 
30/08/15  21:20   18.4   18.5   18.4    88   16.4   6.0   NNE   0.50  11.0     N   18.4   18.9   18.9  1014.2  0.00   0.0   0.000   0.000   28.6    53   18.1   29.7   9.58 1.1475    116    1    100.0    5 
30/08/15  21:25   18.3   18.4   18.3    88   16.3   5.0    NE   0.42   9.0   ENE   18.3   18.8   18.8  1014.1  0.00   0.0   0.000   0.000   28.6    53   18.0   29.6   9.58 1.1477    116    1    100.0    5 
30/08/15  21:30   18.3   18.3   18.3    88   16.3   6.0   NNE   0.50   9.0   NNE   18.3   18.8   18.8  1014.2  0.00   0.0   0.000   0.000   28.6    53   18.0   29.6   9.58 1.1478    117    1    100.0    5 
30/08/15  21:35   18.3   18.3   18.3    88   16.3   6.0   NNE   0.50   9.0   NNE   18.3   18.8   18.8  1014.3  0.00   0.0   0.000   0.000   28.6    53   18.0   29.6   9.58 1.1479    118    1    100.0    5 
30/08/15  21:40   18.3   18.3   18.3    88   16.3   4.0   NNE   0.33   8.0   NNE   18.3   18.8   18.8  1014.2  0.00   0.0   0.000   0.000   28.5    53   18.0   29.5   9.58 1.1481    117    1    100.0    5 
30/08/15  21:45   18.2   18.3   18.2    88   16.2   8.0   NNE   0.67  12.0     N   17.9   18.7   18.4  1014.0  0.00   0.0   0.000   0.000   28.4    53   17.9   29.4   9.59 1.1481    117    1    100.0    5 
30/08/15  21:50   18.2   18.2   18.2    88   16.2   7.0     N   0.58  11.0   NNE   18.2   18.7   18.7  1013.9  0.00   0.0   0.000   0.000   28.4    53   17.9   29.4   9.59 1.1480    116    1    100.0    5 
30/08/15  21:55   18.2   18.2   18.2    89   16.3   6.0   NNE   0.50  11.0    NE   18.2   18.7   18.7  1013.9  0.00   0.0   0.001   0.000   28.4    53   17.9   29.3   9.59 1.1483    116    1    100.0    5 
30/08/15  22:00   18.1   18.2   18.1    89   16.3   6.0   NNE   0.50  11.0   NNE   18.1   18.6   18.6  1014.0  0.00   0.0   0.001   0.000   28.3    53   17.8   29.2   9.59 1.1488    117    1    100.0    5 
30/08/15  22:05   18.1   18.1   18.1    89   16.3   7.0   NNE   0.58  12.0   NNE   18.1   18.6   18.6  1014.0  0.00   0.0   0.001   0.000   28.3    53   17.8   29.2   9.59 1.1490    117    1    100.0    5 
30/08/15  22:10   18.1   18.1   18.1    89   16.2   6.0   NNE   0.50  10.0   NNE   18.1   18.6   18.6  1014.1  0.00   0.0   0.001   0.000   28.3    53   17.8   29.2   9.59 1.1492    117    1    100.0    5 
30/08/15  22:15   18.0   18.1   18.0    89   16.2   7.0   NNE   0.58  11.0   NNE   18.0   18.4   18.4  1014.1  0.00   0.0   0.001   0.000   28.2    53   17.7   29.1   9.59 1.1494    117    1    100.0    5 
30/08/15  22:20   18.0   18.0   17.9    89   16.2   7.0   NNE   0.58  12.0    NE   18.0   18.4   18.4  1014.1  0.00   0.0   0.001   0.000   28.2    53   17.7   29.0   9.60 1.1497    117    1    100.0    5 
30/08/15  22:25   17.9   18.0   17.9    89   16.1   6.0   NNE   0.50  10.0   NNW   17.9   18.4   18.4  1013.9  0.00   0.0   0.001   0.000   28.2    53   17.7   29.0   9.60 1.1495    114    1    100.0    5 
30/08/15  22:30   17.9   17.9   17.9    89   16.0   7.0   NNE   0.58  12.0   NNE   17.9   18.3   18.3  1013.8  0.00   0.0   0.002   0.000   28.2    54   18.0   29.1   9.75 1.1489    116    1    100.0    5 
30/08/15  22:35   17.8   17.9   17.8    89   16.0   5.0   NNE   0.42  10.0    NE   17.8   18.3   18.3  1014.0  0.00   0.0   0.002   0.000   28.2    54   18.0   29.1   9.75 1.1491    117    1    100.0    5 
30/08/15  22:40   17.8   17.8   17.8    89   15.9   4.0   NNE   0.33   8.0   NNE   17.8   18.2   18.2  1014.2  0.00   0.0   0.002   0.000   28.2    54   18.0   29.1   9.75 1.1494    117    1    100.0    5 
30/08/15  22:45   17.8   17.8   17.8    89   15.9   5.0    NE   0.42   7.0   ENE   17.8   18.2   18.2  1014.1  0.00   0.0   0.002   0.000   28.2    54   18.0   29.1   9.75 1.1493    117    1    100.0    5 
30/08/15  22:50   17.7   17.8   17.7    89   15.9   4.0    NE   0.33   9.0   ENE   17.7   18.2   18.2  1014.3  0.00   0.0   0.002   0.000   28.2    54   18.0   29.2   9.75 1.1492    117    1    100.0    5 
30/08/15  22:55   17.7   17.7   17.7    89   15.9   2.0   NNE   0.17   5.0    NE   17.7   18.2   18.2  1014.8  0.00   0.0   0.002   0.000   28.2    54   18.0   29.2   9.75 1.1498    117    1    100.0    5 
30/08/15  23:00   17.7   17.7   17.7    89   15.9   2.0   NNE   0.17   4.0     N   17.7   18.2   18.2  1014.9  0.00   0.0   0.002   0.000   28.2    54   18.0   29.2   9.75 1.1499    117    1    100.0    5 
30/08/15  23:05   17.7   17.8   17.7    89   15.9   5.0     N   0.42   9.0   NNE   17.7   18.2   18.2  1014.5  0.00   0.0   0.002   0.000   28.2    54   18.0   29.2   9.75 1.1495    117    1    100.0    5 
30/08/15  23:10   17.7   17.8   17.7    89   15.9   6.0     N   0.50   8.0     N   17.7   18.2   18.2  1014.5  0.00   0.0   0.002   0.000   28.2    54   18.0   29.2   9.75 1.1494    117    1    100.0    5 
30/08/15  23:15   17.7   17.7   17.7    89   15.9   5.0     N   0.42   7.0     N   17.7   18.2   18.2  1014.9  0.00   0.0   0.002   0.000   28.2    54   18.0   29.2   9.75 1.1499    116    1    100.0    5 
30/08/15  23:20   17.7   17.7   17.7    89   15.9   2.0   NNE   0.17   5.0   NNE   17.7   18.2   18.2  1015.9  0.00   0.0   0.002   0.000   28.2    54   18.0   29.2   9.75 1.1510    117    1    100.0    5 
30/08/15  23:25   17.8   17.8   17.7    89   15.9   2.0     E   0.17   5.0   NNE   17.8   18.2   18.2  1015.6  0.00   0.0   0.002   0.000   28.3    54   18.1   29.2   9.75 1.1504    117    1    100.0    5 
30/08/15  23:30   17.8   17.8   17.8    89   15.9   6.0   NNE   0.50   8.0   NNE   17.8   18.2   18.2  1014.9  0.00   0.0   0.002   0.000   28.3    54   18.1   29.2   9.75 1.1496    117    1    100.0    5 
30/08/15  23:35   17.8   17.8   17.8    89   15.9   5.0   NNE   0.42   9.0     N   17.8   18.2   18.2  1014.5  0.00   0.0   0.002   0.000   28.3    53   17.8   29.2   9.59 1.1496    116    1    100.0    5 
30/08/15  23:40   17.7   17.8   17.7    90   16.0   8.0   NNE   0.67  14.0   NNE   17.2   18.1   17.7  1014.0  0.00   0.0   0.002   0.000   28.3    53   17.8   29.2   9.59 1.1490    118    1    100.0    5 
30/08/15  23:45   17.5   17.7   17.5    90   15.8  11.0   NNE   0.92  15.0   NNE   15.8   17.9   16.2  1012.7  0.00   0.0   0.003   0.000   28.3    53   17.8   29.2   9.59 1.1476    116    1    100.0    5 
30/08/15  23:50   17.3   17.5   17.3    90   15.7  13.0   NNE   1.08  20.0   NNE   14.9   17.7   15.3  1012.1  0.00   0.0   0.003   0.000   28.3    53   17.8   29.2   9.59 1.1468    115    1    100.0    5 
30/08/15  23:55   17.1   17.3   17.1    91   15.6  10.0   NNE   0.83  17.0    NE   15.7   17.5   16.1  1012.4  0.00   0.0   0.004   0.000   28.3    53   17.8   29.2   9.59 1.1472    117    1    100.0    5 
31/08/15  00:00   17.0   17.1   17.0    91   15.5   5.0   NNE   0.42  11.0   NNE   17.0   17.3   17.3  1013.0  0.00   0.0   0.005   0.000   28.3    53   17.8   29.2   9.59 1.1479    117    1    100.0    5 
31/08/15   0:05   16.9   17.0   16.9    91   15.5   6.0   NNE   0.50  10.0   NNE   16.9   17.3   17.3  1013.7  0.00   0.0   0.005   0.000   28.3    53   17.8   29.2   9.59 1.1487    116    1    100.0    5 
31/08/15   0:10   16.9   16.9   16.9    91   15.4   5.0   NNE   0.42   9.0    NE   16.9   17.2   17.2  1013.8  0.00   0.0   0.005   0.000   28.3    53   17.8   29.2   9.59 1.1488    117    1    100.0    5 
31/08/15   0:15   16.8   16.9   16.8    92   15.5   7.0   NNE   0.58  12.0   NNE   16.7   17.2   17.1  1013.7  0.00   0.0   0.005   0.000   28.3    53   17.8   29.2   9.59 1.1486    117    1    100.0    5 
31/08/15   0:20   16.8   16.8   16.8    92   15.5   6.0   NNE   0.50  11.0   NNE   16.8   17.1   17.1  1013.5  0.00   0.0   0.005   0.000   28.3    53   17.8   29.2   9.59 1.1484    117    1    100.0    5 
31/08/15   0:25   16.7   16.8   16.7    92   15.4   8.0   NNE   0.67  12.0     N   16.1   17.1   16.4  1013.2  0.00   0.0   0.006   0.000   28.2    53   17.7   29.1   9.59 1.1484    117    1    100.0    5 
31/08/15   0:30   16.7   16.7   16.7    92   15.4   9.0   NNE   0.75  15.0   NNE   15.6   17.0   15.9  1013.1  0.00   0.0   0.006   0.000   28.2    53   17.7   29.1   9.59 1.1482    117    1    100.0    5 
31/08/15   0:35   16.6   16.7   16.6    92   15.3   8.0   NNE   0.67  15.0    NE   16.0   16.9   16.3  1013.1  0.00   0.0   0.006   0.000   28.2    53   17.7   29.1   9.59 1.1483    117    1    100.0    5 
31/08/15   0:40   16.6   16.6   16.6    92   15.3   7.0   NNE   0.58  11.0   NNE   16.3   16.9   16.7  1013.1  0.00   0.0   0.006   0.000   28.2    53   17.7   29.1   9.59 1.1483    117    1    100.0    5 
31/08/15   0:45   16.6   16.6   16.6    93   15.4   7.0   NNE   0.58  12.0     N   16.3   16.9   16.7  1013.2  0.00   0.0   0.006   0.000   28.2    53   17.7   29.1   9.59 1.1484    116    1    100.0    5 
31/08/15   0:50   16.5   16.6   16.5    92   15.2   8.0   NNE   0.67  12.0   NNE   15.8   16.8   16.1  1013.1  0.00   0.0   0.006   0.000   28.2    53   17.7   29.1   9.59 1.1482    117    1    100.0    5 
31/08/15   0:55   16.4   16.5   16.4    93   15.3   7.0   NNE   0.58  13.0   NNE   16.2   16.8   16.6  1013.0  0.00   0.0   0.007   0.000   28.2    53   17.7   29.1   9.59 1.1482    116    1    100.0    5 
31/08/15   1:00   16.4   16.4   16.4    93   15.3   6.0     N   0.50   9.0   NNE   16.4   16.8   16.7  1013.1  0.00   0.0   0.007   0.000   28.2    53   17.7   29.0   9.60 1.1486    116    1    100.0    5 
31/08/15   1:05   16.4   16.4   16.4    93   15.3   7.0     N   0.58  10.0   NNE   16.2   16.7   16.4  1013.1  0.00   0.0   0.007   0.000   28.2    53   17.7   29.0   9.60 1.1485    116    1    100.0    5 
31/08/15   1:10   16.4   16.4   16.4    93   15.3   6.0     N   0.50  11.0     N   16.3   16.7   16.6  1013.0  0.00   0.0   0.007   0.000   28.2    53   17.7   29.0   9.60 1.1484    117    1    100.0    5 
31/08/15   1:15   16.3   16.4   16.3    93   15.2   5.0   NNE   0.42   8.0    NE   16.3   16.6   16.6  1013.0  0.00   0.0   0.007   0.000   28.1    53   17.6   28.9   9.60 1.1487    117    1    100.0    5 
31/08/15   1:20   16.3   16.3   16.3    93   15.2   7.0   NNE   0.58  13.0   NNE   16.1   16.6   16.3  1012.7  0.00   0.0   0.007   0.000   28.1    53   17.6   28.9   9.60 1.1484    117    1    100.0    5 
31/08/15   1:25   16.3   16.3   16.3    93   15.1   8.0   NNE   0.67  13.0    NE   15.6   16.6   15.9  1012.5  0.00   0.0   0.007   0.000   28.1    53   17.6   28.9   9.60 1.1482    117    1    100.0    5 
31/08/15   1:30   16.3   16.3   16.3    93   15.1   8.0   NNE   0.67  13.0   NNE   15.6   16.6   15.9  1012.6  0.00   0.0   0.007   0.000   28.1    53   17.6   28.9   9.60 1.1482    116    1    100.0    5 
31/08/15   1:35   16.2   16.3   16.2    93   15.1   7.0   NNE   0.58  10.0   NNE   15.9   16.5   16.2  1012.4  0.00   0.0   0.007   0.000   28.1    53   17.6   28.9   9.60 1.1481    115    1    100.0    5 
31/08/15   1:40   16.2   16.2   16.2    93   15.1   8.0   NNE   0.67  13.0    NE   15.5   16.5   15.8  1012.3  0.00   0.0   0.007   0.000   28.1    53   17.6   28.9   9.60 1.1479    117    1    100.0    5 
31/08/15   1:45   16.2   16.2   16.2    93   15.0   7.0   NNE   0.58  14.0   NNE   15.8   16.4   16.1  1012.2  0.00   0.0   0.008   0.000   28.1    53   17.6   28.8   9.60 1.1481    117    1    100.0    5 
31/08/15   1:50   16.1   16.2   16.1    93   15.0   6.0   NNE   0.50  10.0     N   16.0   16.4   16.3  1012.5  0.00   0.0   0.008   0.000   28.1    53   17.6   28.8   9.60 1.1484    117    1    100.0    5 
31/08/15   1:55   16.1   16.1   16.1    93   14.9   6.0   NNE   0.50  11.0    NE   15.9   16.3   16.2  1012.4  0.00   0.0   0.008   0.000   28.1    53   17.6   28.8   9.60 1.1483    117    1    100.0    5 
31/08/15   2:00   16.1   16.1   16.1    93   14.9   6.0   NNE   0.50   9.0    NE   15.9   16.3   16.2  1012.6  0.00   0.0   0.008   0.000   28.0    53   17.5   28.7   9.60 1.1488    117    1    100.0    5 
31/08/15   2:05   16.1   16.1   16.1    94   15.1   5.0   NNE   0.42   8.0   NNE   16.1   16.3   16.3  1012.6  0.00   0.0   0.008   0.000   28.0    53   17.5   28.7   9.60 1.1488    117    1    100.0    5 
31/08/15   2:10   16.1   16.1   16.0    94   15.1   4.0   NNE   0.33   9.0   NNE   16.1   16.3   16.3  1012.6  0.00   0.0   0.008   0.000   28.0    53   17.5   28.7   9.60 1.1488    118    1    100.0    5 
31/08/15   2:15   16.0   16.1   16.0    94   15.0   6.0   NNE   0.50  11.0   NNE   15.9   16.3   16.2  1012.5  0.00   0.0   0.008   0.000   28.0    53   17.5   28.7   9.60 1.1487    117    1    100.0    5 
31/08/15   2:20   16.0   16.1   16.0    94   15.0   5.0   NNE   0.42   9.0    NE   16.0   16.3   16.3  1012.4  0.00   0.0   0.008   0.000   27.9    53   17.5   28.6   9.60 1.1488    117    1    100.0    5 
31/08/15   2:25   16.0   16.0   16.0    94   15.0   8.0   NNE   0.67  12.0   NNE   15.3   16.3   15.6  1012.3  0.00   0.0   0.008   0.000   27.9    53   17.5   28.6   9.60 1.1488    115    1    100.0    5 
31/08/15   2:30   16.0   16.0   16.0    94   15.0   7.0   NNE   0.58  11.0   NNE   15.7   16.3   15.9  1012.4  0.00   0.0   0.008   0.000   27.9    53   17.5   28.6   9.60 1.1488    117    1    100.0    5 
31/08/15   2:35   16.0   16.0   16.0    94   15.0   7.0   NNE   0.58  11.0   NNE   15.7   16.3   15.9  1012.3  0.00   0.0   0.008   0.000   27.9    53   17.4   28.6   9.61 1.1491    117    1    100.0    5 
31/08/15   2:40   16.0   16.0   16.0    94   15.0   7.0   NNE   0.58  14.0   NNE   15.7   16.3   15.9  1012.3  0.00   0.0   0.008   0.000   27.9    53   17.4   28.6   9.61 1.1490    116    1    100.0    5 
31/08/15   2:45   16.0   16.0   15.9    94   15.0   5.0   NNE   0.42  10.0   NNE   16.0   16.3   16.3  1012.3  0.00   0.0   0.008   0.000   27.9    53   17.4   28.6   9.61 1.1491    116    1    100.0    5 
31/08/15   2:50   16.0   16.0   16.0    94   15.0   5.0    NE   0.42  11.0    NE   16.0   16.3   16.3  1012.3  0.00   0.0   0.008   0.000   27.8    53   17.4   28.4   9.61 1.1493    117    1    100.0    5 
31/08/15   2:55   16.0   16.0   16.0    94   15.0   6.0   NNE   0.50  12.0    NE   15.9   16.3   16.2  1012.3  0.00   0.0   0.008   0.000   27.8    53   17.4   28.4   9.61 1.1493    117    1    100.0    5 
31/08/15   3:00   16.0   16.0   16.0    94   15.0   6.0   NNE   0.50  13.0   NNE   15.9   16.3   16.2  1012.2  0.00   0.0   0.008   0.000   27.8    53   17.4   28.4   9.61 1.1492    114    1    100.0    5 
31/08/15   3:05   16.0   16.0   16.0    94   15.0   6.0   NNE   0.50  11.0    NE   15.9   16.3   16.2  1012.2  0.00   0.0   0.008   0.000   27.8    53   17.4   28.4   9.61 1.1492    116    1    100.0    5 
31/08/15   3:10   16.1   16.1   16.0    94   15.1   5.0   NNE   0.42  10.0    NE   16.1   16.3   16.3  1012.2  0.00   0.0   0.008   0.000   27.8    53   17.4   28.4   9.61 1.1492    117    1    100.0    5 
31/08/15   3:15   16.1   16.1   16.0    94   15.1   5.0   NNE   0.42  10.0    NE   16.1   16.3   16.3  1012.2  0.00   0.0   0.008   0.000   27.8    53   17.3   28.4   9.61 1.1495    117    1    100.0    5 
31/08/15   3:20   16.1   16.1   16.1    94   15.1   4.0   NNE   0.33   9.0   NNE   16.1   16.3   16.3  1012.3  0.00   0.0   0.008   0.000   27.8    53   17.3   28.4   9.61 1.1497    117    1    100.0    5 
31/08/15   3:25   16.1   16.1   16.1    94   15.1   5.0     N   0.42   8.0     N   16.1   16.3   16.3  1012.4  0.00   0.0   0.008   0.000   27.7    53   17.3   28.3   9.61 1.1501    116    1    100.0    5 
31/08/15   3:30   16.1   16.1   16.1    94   15.1   4.0   NNE   0.33   8.0   NNE   16.1   16.4   16.4  1012.5  0.00   0.0   0.008   0.000   27.7    53   17.3   28.3   9.61 1.1501    117    1    100.0    5 
31/08/15   3:35   16.2   16.2   16.1    94   15.2   5.0   NNE   0.42   9.0   NNE   16.2   16.4   16.4  1012.6  0.00   0.0   0.008   0.000   27.7    53   17.3   28.3   9.61 1.1502    116    1    100.0    5 
31/08/15   3:40   16.2   16.2   16.1    94   15.2   4.0   NNE   0.33   6.0   NNE   16.2   16.4   16.4  1012.6  0.00   0.0   0.008   0.000   27.7    53   17.3   28.3   9.61 1.1503    117    1    100.0    5 
31/08/15   3:45   16.2   16.2   16.2    94   15.2   2.0   NNE   0.17   5.0   NNE   16.2   16.4   16.4  1012.7  0.00   0.0   0.008   0.000   27.7    53   17.2   28.2   9.61 1.1506    114    1    100.0    5 
31/08/15   3:50   16.2   16.2   16.2    94   15.2   1.0   NNE   0.08   3.0    NE   16.2   16.4   16.4  1012.6  0.00   0.0   0.008   0.000   27.7    53   17.2   28.2   9.61 1.1506    117    1    100.0    5 
31/08/15   3:55   16.2   16.2   16.2    94   15.2   1.0    NE   0.08   3.0    NE   16.2   16.4   16.4  1012.6  0.00   0.0   0.008   0.000   27.7    53   17.2   28.2   9.61 1.1506    117    1    100.0    5 
31/08/15   4:00   16.2   16.2   16.2    94   15.3   1.0    NE   0.08   3.0    NE   16.2   16.5   16.5  1012.6  0.00   0.0   0.007   0.000   27.6    53   17.2   28.1   9.62 1.1508    117    1    100.0    5 
31/08/15   4:05   16.2   16.2   16.2    94   15.3   2.0    NE   0.17   5.0    NE   16.2   16.5   16.5  1012.4  0.00   0.0   0.007   0.000   27.6    53   17.2   28.1   9.62 1.1506    117    1    100.0    5 
31/08/15   4:10   16.3   16.3   16.2    94   15.3   3.0    NE   0.25   8.0   ENE   16.3   16.6   16.6  1012.3  0.00   0.0   0.007   0.000   27.6    53   17.2   28.1   9.62 1.1505    117    1    100.0    5 
31/08/15   4:15   16.3   16.3   16.2    94   15.3   3.0   NNE   0.25   6.0   NNE   16.3   16.6   16.6  1012.2  0.00   0.0   0.007   0.000   27.6    53   17.2   28.1   9.62 1.1504    118    1    100.0    5 
31/08/15   4:20   16.3   16.3   16.2    94   15.3   3.0   NNE   0.25   6.0    NE   16.3   16.6   16.6  1012.3  0.00   0.0   0.007   0.000   27.6    53   17.1   28.1   9.62 1.1508    117    1    100.0    5 
31/08/15   4:25   16.3   16.3   16.2    94   15.3   3.0   NNE   0.25   5.0   NNE   16.3   16.6   16.6  1012.2  0.00   0.0   0.007   0.000   27.6    53   17.2   28.1   9.62 1.1503    115    1    100.0    5 
31/08/15   4:30   16.2   16.3   16.2    94   15.3   4.0   NNE   0.33   8.0    NE   16.2   16.5   16.5  1012.1  0.00   0.0   0.007   0.000   27.6    53   17.1   28.1   9.62 1.1505    117    1    100.0    5 
31/08/15   4:35   16.2   16.2   16.2    94   15.3   4.0   NNE   0.33   7.0   NNE   16.2   16.5   16.5  1011.9  0.00   0.0   0.007   0.000   27.5    53   17.1   28.0   9.62 1.1506    117    1    100.0    5 
31/08/15   4:40   16.2   16.2   16.2    94   15.3   3.0   NNE   0.25   5.0   NNE   16.2   16.5   16.5  1011.9  0.00   0.0   0.007   0.000   27.5    53   17.1   28.0   9.62 1.1506    117    1    100.0    5 
31/08/15   4:45   16.2   16.2   16.2    94   15.3   4.0   NNE   0.33   6.0   NNE   16.2   16.5   16.5  1011.6  0.00   0.0   0.007   0.000   27.5    53   17.1   28.0   9.62 1.1503    117    1    100.0    5 
31/08/15   4:50   16.2   16.2   16.2    94   15.3   3.0   NNE   0.25   6.0   NNE   16.2   16.5   16.5  1011.5  0.00   0.0   0.007   0.000   27.5    53   17.1   28.0   9.62 1.1501    117    1    100.0    5 
31/08/15   4:55   16.2   16.2   16.2    94   15.2   4.0   NNE   0.33   7.0   NNE   16.2   16.4   16.4  1011.3  0.00   0.0   0.008   0.000   27.5    53   17.1   28.0   9.62 1.1500    116    1    100.0    5 
31/08/15   5:00   16.2   16.2   16.2    95   15.4   4.0     N   0.33   7.0   NNW   16.2   16.5   16.5  1011.4  0.00   0.0   0.007   0.000   27.5    53   17.1   28.0   9.62 1.1500    117    1    100.0    5 
31/08/15   5:05   16.2   16.2   16.2    95   15.4   4.0   NNW   0.33   7.0   NNW   16.2   16.5   16.5  1011.3  0.00   0.0   0.007   0.000   27.4    53   17.0   27.9   9.62 1.1502    117    1    100.0    5 
31/08/15   5:10   16.2   16.2   16.2    95   15.4   5.0     N   0.42   8.0     N   16.2   16.5   16.5  1010.9  0.00   0.0   0.007   0.000   27.4    53   17.0   27.9   9.62 1.1498    116    1    100.0    5 
31/08/15   5:15   16.2   16.2   16.2    95   15.4   6.0     N   0.50  10.0   NNW   16.1   16.5   16.4  1010.7  0.00   0.0   0.007   0.000   27.4    53   17.0   27.9   9.62 1.1495    116    1    100.0    5 
31/08/15   5:20   16.2   16.2   16.2    95   15.4   6.0     N   0.50  10.0   NNE   16.1   16.5   16.4  1010.6  0.00   0.0   0.007   0.000   27.4    53   17.0   27.9   9.62 1.1493    118    1    100.0    5 
31/08/15   5:25   16.2   16.2   16.2    95   15.4   6.0     N   0.50  10.0     N   16.1   16.4   16.3  1010.3  0.00   0.0   0.008   0.000   27.4    53   17.0   27.9   9.62 1.1491    116    1    100.0    5 
31/08/15   5:30   16.2   16.2   16.2    95   15.4   7.0     N   0.58  11.0     N   15.8   16.4   16.1  1010.4  0.00   0.0   0.008   0.000   27.4    52   16.7   27.7   9.42 1.1498    116    1    100.0    5 
31/08/15   5:35   16.1   16.2   16.1    95   15.3   7.0     N   0.58  10.0   NNE   15.8   16.4   16.1  1010.4  0.00   0.0   0.008   0.000   27.4    52   16.7   27.7   9.42 1.1498    117    1    100.0    5 
31/08/15   5:40   16.1   16.1   16.1    95   15.3   6.0     N   0.50  10.0     N   16.0   16.4   16.3  1010.5  0.00   0.0   0.008   0.000   27.4    52   16.7   27.7   9.42 1.1500    117    1    100.0    5 
31/08/15   5:45   16.1   16.1   16.1    95   15.3   6.0     N   0.50  10.0     N   15.9   16.3   16.2  1010.4  0.00   0.0   0.008   0.000   27.3    53   16.9   27.7   9.63 1.1498    116    1    100.0    5 
31/08/15   5:50   16.1   16.1   16.1    95   15.3   8.0     N   0.67  14.0     N   15.3   16.3   15.6  1010.2  0.00   0.0   0.008   0.000   27.3    53   16.9   27.7   9.63 1.1495    116    1    100.0    5 
31/08/15   5:55   16.0   16.1   16.0    95   15.2   7.0     N   0.58  11.0     N   15.7   16.3   15.9  1010.2  0.00   0.0   0.008   0.000   27.3    52   16.6   27.7   9.43 1.1499    116    1    100.0    5 
31/08/15   6:00   16.0   16.0   15.9    95   15.2   8.0     N   0.67  13.0   NNE   15.3   16.3   15.6  1010.2  0.00   0.0   0.008   0.000   27.3    52   16.6   27.6   9.43 1.1502    117    1    100.0    5 
31/08/15   6:05   15.9   16.0   15.9    95   15.1   7.0     N   0.58  12.0   NNW   15.6   16.2   15.8  1010.3  0.00   0.0   0.008   0.000   27.3    53   16.9   27.7   9.63 1.1496    117    1    100.0    5 
31/08/15   6:10   15.9   15.9   15.9    95   15.1   6.0     N   0.50  12.0     N   15.8   16.2   16.1  1010.4  0.00   0.0   0.008   0.000   27.3    53   16.9   27.7   9.63 1.1500    117    1    100.0    5 
31/08/15   6:15   15.9   15.9   15.9    95   15.1   6.0     N   0.50   9.0     N   15.8   16.2   16.1  1010.4  0.00   0.0   0.008   0.000   27.3    53   16.9   27.7   9.63 1.1500    117    1    100.0    5 
31/08/15   6:20   15.9   15.9   15.9    95   15.1   6.0     N   0.50  13.0   NNW   15.8   16.2   16.1  1010.6  0.00   0.0   0.008   0.000   27.3    53   16.9   27.7   9.63 1.1502    116    1    100.0    5 
31/08/15   6:25   15.9   15.9   15.9    95   15.1   5.0   NNW   0.42  11.0     N   15.9   16.2   16.2  1011.1  0.00   0.0   0.008   0.000   27.2    53   16.8   27.6   9.63 1.1511    118    1    100.0    5 
31/08/15   6:30   15.9   15.9   15.9    95   15.1   5.0    NW   0.42   8.0    NW   15.9   16.2   16.2  1011.4  0.00   0.0   0.008   0.000   27.2    53   16.8   27.6   9.63 1.1515    117    1    100.0    5 
31/08/15   6:35   15.9   15.9   15.9    95   15.1   5.0    NW   0.42   9.0   WNW   15.9   16.2   16.2  1011.5  0.00   0.0   0.008   0.000   27.2    53   16.8   27.6   9.63 1.1516    117    1    100.0    5 
31/08/15   6:40   15.9   15.9   15.9    95   15.1   5.0   NNW   0.42   9.0     N   15.9   16.2   16.2  1011.2  0.00   0.0   0.008   0.000   27.2    53   16.8   27.5   9.63 1.1515    115    1    100.0    5 
31/08/15   6:45   15.9   15.9   15.9    95   15.1   7.0   NNE   0.58  13.0   NNE   15.5   16.2   15.8  1010.6  0.00   0.0   0.008   0.000   27.2    53   16.8   27.5   9.63 1.1508    117    1    100.0    5 
31/08/15   6:50   15.8   15.9   15.8    95   15.0   8.0   NNE   0.67  15.0   NNE   15.1   16.1   15.3  1010.4  0.00   0.0   0.009   0.000   27.1    53   16.7   27.4   9.63 1.1509    117    1    100.0    5 
31/08/15   6:55   15.8   15.8   15.8    95   15.0   7.0   NNE   0.58  11.0   NNE   15.4   16.1   15.7  1010.3  0.00   0.0   0.009   0.000   27.2    53   16.8   27.5   9.63 1.1504    117    1    100.0    5 
31/08/15   7:00   15.8   15.8   15.8    95   15.0   8.0   NNE   0.67  14.0   NNE   15.1   16.1   15.3  1010.3  0.00   0.0   0.009   0.000   27.1    53   16.7   27.4   9.63 1.1507    116    1    100.0    5 
31/08/15   7:05   15.8   15.8   15.8    96   15.1   7.0   NNE   0.58  11.0   NNE   15.4   16.1   15.7  1010.1  0.00   0.0   0.009   0.000   27.1    53   16.7   27.4   9.63 1.1505    117    1    100.0    5 
31/08/15   7:10   15.8   15.8   15.8    96   15.2   6.0     N   0.50  10.0     N   15.7   16.1   15.9  1010.0  0.00   0.0   0.009   0.000   27.1    53   16.7   27.4   9.63 1.1503    116    1    100.0    5 
31/08/15   7:15   15.8   15.8   15.8    96   15.2   8.0   NNE   0.67  12.0   NNE   15.1   16.1   15.3  1009.8  0.00   0.0   0.009   0.000   27.1    53   16.7   27.4   9.63 1.1501    116    1    100.0    5 
31/08/15   7:20   15.8   15.8   15.8    96   15.1   8.0   NNE   0.67  14.0   NNE   15.0   16.1   15.3  1009.8  0.00   0.0   0.009   0.000   27.1    53   16.7   27.4   9.64 1.1504    117    1    100.0    5 
31/08/15   7:25   15.8   15.8   15.8    96   15.1   9.0   NNE   0.75  17.0   NNE   14.6   16.1   14.8  1009.9  0.00   0.0   0.009   0.000   27.0    53   16.6   27.3   9.64 1.1508    117    1    100.0    5 
31/08/15   7:30   15.8   15.8   15.7    96   15.1   7.0     N   0.58  13.0     N   15.4   16.1   15.7  1010.1  0.00   0.0   0.009   0.000   27.0    53   16.6   27.3   9.64 1.1511    116    1    100.0    5 
31/08/15   7:35   15.7   15.8   15.7    96   15.1   8.0     N   0.67  13.0     N   14.9   16.0   15.2  1010.2  0.00   0.0   0.009   0.000   27.0    53   16.6   27.3   9.64 1.1512    116    1    100.0    5 
31/08/15   7:40   15.8   15.8   15.7    96   15.1   6.0     N   0.50  10.0     N   15.6   16.1   15.9  1010.2  0.00   0.0   0.009   0.000   27.0    53   16.6   27.3   9.64 1.1511    117    1    100.0    5 
31/08/15   7:45   15.8   15.8   15.7    96   15.1   7.0   NNE   0.58  10.0   NNE   15.4   16.1   15.7  1010.0  0.00   0.0   0.009   0.000   27.0    53   16.6   27.3   9.64 1.1510    115    1    100.0    5 
31/08/15   7:50   15.8   15.8   15.8    96   15.1   8.0   NNE   0.67  12.0   NNE   15.0   16.1   15.3  1009.6  0.00   0.0   0.009   0.000   27.0    53   16.6   27.3   9.64 1.1505    117    1    100.0    5 
31/08/15   7:55   15.8   15.8   15.8    96   15.2   9.0     N   0.75  15.0   NNE   14.6   16.1   14.9  1009.6  0.00   0.0   0.009   0.000   27.0    53   16.6   27.3   9.64 1.1505    117    1    100.0    5 
31/08/15   8:00   15.8   15.8   15.8    96   15.2   8.0     N   0.67  11.0     N   15.1   16.1   15.3  1009.8  0.00   0.0   0.009   0.000   26.9    53   16.6   27.2   9.64 1.1510    116    1    100.0    5 
31/08/15   8:05   15.9   15.9   15.8    96   15.3   7.0     N   0.58  11.0   NNE   15.5   16.2   15.8  1009.6  0.00   0.0   0.008   0.000   26.9    53   16.6   27.2   9.64 1.1508    115    1    100.0    5 
31/08/15   8:10   15.9   15.9   15.9    96   15.3   8.0     N   0.67  12.0   NNW   15.2   16.2   15.4  1009.6  0.00   0.0   0.008   0.000   26.9    53   16.6   27.2   9.64 1.1508    117    1    100.0    5 
31/08/15   8:15   16.0   16.0   15.9    96   15.4   5.0     N   0.42  11.0    NE   16.0   16.3   16.3  1009.7  0.00   0.0   0.008   0.000   26.9    53   16.5   27.2   9.64 1.1511    116    1    100.0    5 
31/08/15   8:20   16.0   16.0   16.0    96   15.4   6.0   NNE   0.50  13.0   NNE   15.9   16.3   16.2  1009.5  0.00   0.0   0.008   0.000   26.9    53   16.5   27.2   9.64 1.1510    117    1    100.0    5 
31/08/15   8:25   16.1   16.1   16.0    96   15.4   8.0   NNE   0.67  13.0   NNE   15.3   16.3   15.6  1009.5  0.00   0.0   0.008   0.000   26.9    53   16.5   27.2   9.64 1.1509    117    1    100.0    5 
31/08/15   8:30   16.1   16.1   16.0    96   15.4   8.0   NNE   0.67  16.0   NNE   15.3   16.3   15.6  1009.4  0.00   0.0   0.008   0.000   26.9    53   16.5   27.2   9.64 1.1508    118    1    100.0    5 
31/08/15   8:35   16.1   16.1   16.1    96   15.4   7.0     N   0.58  15.0   NNE   15.7   16.3   16.0  1009.5  0.00   0.0   0.008   0.000   26.9    53   16.5   27.2   9.64 1.1509    117    1    100.0    5 
31/08/15   8:40   16.1   16.2   16.1    96   15.5   6.0     N   0.50  10.0     N   16.0   16.4   16.3  1009.9  0.00   0.0   0.008   0.000   26.9    53   16.5   27.2   9.64 1.1514    117    1    100.0    5 
31/08/15   8:45   16.2   16.2   16.2    96   15.5   6.0   NNW   0.50  10.0   NNW   16.1   16.5   16.4  1009.8  0.00   0.0   0.008   0.000   26.9    53   16.5   27.2   9.64 1.1513    117    1    100.0    5 
31/08/15   8:50   16.1   16.2   16.1    96   15.5   7.0   NNW   0.58  10.0   NNW   15.8   16.4   16.1  1009.8  0.00   0.0   0.008   0.000   26.9    53   16.5   27.2   9.64 1.1513    117    1    100.0    5 
31/08/15   8:55   16.1   16.1   16.1    96   15.4   7.0    NW   0.58   9.0    NW   15.7   16.3   16.0  1009.8  0.00   0.0   0.008   0.000   26.8    53   16.4   27.1   9.64 1.1516    116    1    100.0    5 
31/08/15   9:00   16.0   16.1   16.0    96   15.4   8.0   NNW   0.67  14.0   NNW   15.3   16.3   15.6  1009.9  0.00   0.0   0.008   0.000   26.8    53   16.4   27.1   9.64 1.1517    117    1    100.0    5 
31/08/15   9:05   16.1   16.1   16.0    96   15.4   9.0   NNW   0.75  16.0   NNW   14.9   16.3   15.2  1009.6  0.00   0.0   0.008   0.000   26.8    53   16.4   27.1   9.64 1.1513    117    1    100.0    5 
31/08/15   9:10   16.1   16.1   16.1    96   15.5  10.0   NNW   0.83  16.0     N   14.5   16.4   14.8  1009.5  0.00   0.0   0.008   0.000   26.8    53   16.4   27.1   9.64 1.1513    116    1    100.0    5 
31/08/15   9:15   16.1   16.1   16.1    96   15.5  10.0     N   0.83  16.0   NNW   14.5   16.4   14.8  1009.5  0.00   0.0   0.008   0.000   26.8    53   16.4   27.1   9.64 1.1512    117    1    100.0    5 
31/08/15   9:20   16.1   16.1   16.1    96   15.4  11.0     N   0.92  15.0     N   14.1   16.3   14.4  1009.7  0.00   0.0   0.008   0.000   26.8    53   16.4   27.1   9.64 1.1514    116    1    100.0    5 
31/08/15   9:25   16.0   16.1   16.0    96   15.4   8.0     N   0.67  15.0     N   15.3   16.3   15.6  1009.9  0.00   0.0   0.008   0.000   26.8    53   16.4   27.1   9.64 1.1517    117    1    100.0    5 
31/08/15   9:30   15.9   16.0   15.9    96   15.3   9.0     N   0.75  14.0     N   14.7   16.2   15.0  1009.9  0.00   0.0   0.008   0.000   26.8    53   16.4   27.1   9.64 1.1517    116    1    100.0    5 
31/08/15   9:35   15.8   15.9   15.8    96   15.2   8.0     N   0.67  14.0     N   15.1   16.1   15.3  1010.0  0.00   0.0   0.009   0.000   26.8    53   16.4   27.1   9.64 1.1518    117    1    100.0    5 
31/08/15   9:40   15.8   15.9   15.8    96   15.2   7.0     N   0.58  13.0   NNW   15.4   16.1   15.7  1010.0  0.00   0.0   0.009   0.000   26.8    53   16.4   27.1   9.64 1.1518    115    1    100.0    5 
31/08/15   9:45   15.8   15.9   15.8    96   15.1   9.0   NNW   0.75  14.0   NNW   14.6   16.1   14.8  1010.1  0.00   0.0   0.009   0.000   26.8    53   16.4   27.1   9.64 1.1519    117    1    100.0    5 
31/08/15   9:50   15.7   15.8   15.7    96   15.1   9.0   NNW   0.75  15.0   NNW   14.5   16.0   14.8  1010.2  0.00   0.0   0.009   0.000   26.8    53   16.4   27.1   9.64 1.1520    117    1    100.0    5 
31/08/15   9:55   15.7   15.7   15.7    96   15.1   7.0   NNW   0.58  11.0   NNW   15.3   16.0   15.6  1010.2  0.00   0.0   0.009   0.000   26.8    54   16.7   27.2   9.75 1.1516    116    1    100.0    5 
31/08/15  10:00   15.7   15.7   15.7    96   15.0   7.0     N   0.58  13.0     N   15.2   15.9   15.5  1010.2  0.00   0.0   0.009   0.000   26.8    54   16.7   27.2   9.75 1.1516    114    1    100.0    5 
31/08/15  10:05   15.7   15.7   15.7    96   15.1   7.0     N   0.58  15.0   NNW   15.3   16.0   15.6  1010.3  0.00   0.0   0.009   0.000   26.9    54   16.8   27.3   9.75 1.1514    117    1    100.0    5 
31/08/15  10:10   15.6   15.7   15.6    96   15.0   8.0     N   0.67  13.0     N   14.8   15.8   15.0  1010.3  0.00   0.0   0.009   0.000   26.9    54   16.8   27.3   9.75 1.1515    117    1    100.0    5 
31/08/15  10:15   15.6   15.6   15.6    96   14.9   8.0     N   0.67  14.0     N   14.7   15.8   14.9  1010.4  0.00   0.0   0.010   0.000   26.9    54   16.8   27.3   9.75 1.1513    117    1    100.0    5 
31/08/15  10:20   15.6   15.6   15.6    96   14.9   8.0     N   0.67  14.0   NNE   14.7   15.8   14.9  1010.3  0.00   0.0   0.010   0.000   26.9    54   16.8   27.3   9.75 1.1512    117    1    100.0    5 
31/08/15  10:25   15.5   15.6   15.5    96   14.9   9.0   NNE   0.75  16.0     N   14.2   15.7   14.4  1010.3  0.00   0.0   0.010   0.000   27.0    54   16.9   27.4   9.75 1.1509    116    1    100.0    5 
31/08/15  10:30   15.5   15.5   15.5    96   14.9   7.0   NNE   0.58  11.0    NE   15.1   15.7   15.3  1010.3  0.00   0.0   0.010   0.000   27.0    53   16.6   27.3   9.64 1.1513    117    1    100.0    5 
31/08/15  10:35   15.6   15.6   15.5    96   14.9   5.0     N   0.42   8.0   NNE   15.6   15.8   15.8  1010.4  0.00   0.0   0.010   0.000   27.0    53   16.6   27.3   9.64 1.1514    117    1    100.0    5 
31/08/15  10:40   15.6   15.6   15.6    96   15.0   5.0     N   0.42   9.0   NNW   15.6   15.8   15.8  1010.5  0.00   0.0   0.009   0.000   27.1    53   16.7   27.4   9.64 1.1512    116    1    100.0    5 
31/08/15  10:45   15.7   15.7   15.6    96   15.0   5.0     N   0.42   9.0     N   15.7   15.9   15.9  1010.5  0.00   0.0   0.009   0.000   27.1    53   16.7   27.4   9.64 1.1512    116    1    100.0    5 
31/08/15  10:50   15.7   15.7   15.7    96   15.1   6.0     N   0.50   9.0   NNE   15.6   16.0   15.8  1010.5  0.00   0.0   0.009   0.000   27.1    53   16.7   27.4   9.64 1.1512    117    1    100.0    5 
31/08/15  10:55   15.7   15.7   15.7    96   15.1   6.0     N   0.50  10.0   NNE   15.6   16.0   15.8  1010.4  0.00   0.0   0.009   0.000   27.1    53   16.7   27.4   9.64 1.1512    117    1    100.0    5 
31/08/15  11:00   15.7   15.7   15.7    96   15.1   6.0     N   0.50   9.0     N   15.6   16.0   15.8  1010.4  0.00   0.0   0.009   0.000   27.1    53   16.7   27.4   9.64 1.1512    116    1    100.0    5 
31/08/15  11:05   15.7   15.7   15.7    96   15.1   5.0   NNE   0.42   8.0   NNE   15.7   16.0   16.0  1010.4  0.00   0.0   0.009   0.000   27.1    53   16.7   27.4   9.64 1.1511    117    1    100.0    5 
31/08/15  11:10   15.7   15.7   15.7    96   15.1   5.0     N   0.42   9.0    NE   15.7   16.0   16.0  1010.3  0.00   0.0   0.009   0.000   27.1    54   16.9   27.4   9.75 1.1506    116    1    100.0    5 
31/08/15  11:15   15.7   15.8   15.7    96   15.1   6.0     N   0.50  11.0     N   15.6   16.0   15.8  1010.3  0.00   0.0   0.009   0.000   27.1    55   17.2   27.5   9.85 1.1502    116    1    100.0    5 
31/08/15  11:20   15.7   15.7   15.7    96   15.1   6.0     N   0.50   9.0   NNW   15.6   16.0   15.8  1010.3  0.00   0.0   0.009   0.000   27.1    56   17.6   27.7  10.05 1.1494    117    1    100.0    5 
31/08/15  11:25   15.7   15.7   15.7    96   15.1   7.0   NNW   0.58  11.0   NNW   15.3   16.0   15.6  1010.2  0.00   0.0   0.009   0.000   27.1    58   18.1   27.8  10.35 1.1485    117    1    100.0    5 
31/08/15  11:30   15.8   15.8   15.7    96   15.1   6.0   NNW   0.50  12.0     N   15.6   16.1   15.9  1010.2  0.00   0.0   0.009   0.000   27.2    59   18.5   28.0  10.55 1.1478    117    1    100.0    5 
31/08/15  11:35   15.8   15.8   15.7    96   15.1   7.0   NNW   0.58  12.0   NNW   15.4   16.1   15.7  1010.1  0.00   0.0   0.009   0.000   27.2    59   18.5   28.1  10.55 1.1475    117    1    100.0    5 
31/08/15  11:40   15.8   15.8   15.8    96   15.1   9.0   NNW   0.75  14.0     N   14.6   16.1   14.8  1010.0  0.00   0.0   0.009   0.000   27.2    59   18.5   28.1  10.55 1.1473    117    1    100.0    5 
31/08/15  11:45   15.8   15.8   15.7    96   15.1   7.0   NNW   0.58  12.0   NNW   15.4   16.1   15.7  1010.1  0.00   0.0   0.009   0.000   27.2    58   18.2   28.0  10.35 1.1478    116    1    100.0    5 
31/08/15  11:50   15.7   15.8   15.7    96   15.0   8.0   NNW   0.67  14.0     N   14.8   15.9   15.1  1010.2  0.00   0.0   0.009   0.000   27.3    58   18.3   28.1  10.35 1.1477    116    1    100.0    5 
31/08/15  11:55   15.7   15.7   15.7    96   15.0   7.0   NNW   0.58  11.0     N   15.2   15.9   15.5  1010.3  0.00   0.0   0.009   0.000   27.3    57   18.0   28.0  10.17 1.1482    116    1    100.0    5 
31/08/15  12:00   15.7   15.7   15.6    96   15.0   7.0   NNW   0.58  13.0     N   15.2   15.9   15.5  1010.4  0.00   0.0   0.009   0.000   27.3    57   18.1   28.1  10.17 1.1480    117    1    100.0    5 
31/08/15  12:05   15.6   15.6   15.6    96   15.0   8.0   NNW   0.67  14.0   NNW   14.8   15.8   15.0  1010.5  0.00   0.0   0.009   0.000   27.3    57   18.1   28.1  10.17 1.1481    116    1    100.0    5 
31/08/15  12:10   15.6   15.6   15.6    96   14.9   8.0   NNW   0.67  13.0     N   14.7   15.8   14.9  1010.5  0.00   0.0   0.010   0.000   27.4    57   18.1   28.2  10.18 1.1479    116    1    100.0    5 
31/08/15  12:15   15.6   15.6   15.6    96   15.0   8.0     N   0.67  13.0     N   14.8   15.8   15.0  1010.5  0.00   0.0   0.009   0.000   27.4    57   18.1   28.2  10.18 1.1479    116    1    100.0    5 
31/08/15  12:20   15.6   15.7   15.6    96   15.0   8.0   NNW   0.67  15.0   NNW   14.8   15.8   15.0  1010.5  0.00   0.0   0.009   0.000   27.4    57   18.2   28.2  10.18 1.1475    115    1    100.0    5 
31/08/15  12:25   15.7   15.7   15.6    96   15.1   7.0     N   0.58  11.0     N   15.3   16.0   15.6  1010.5  0.00   0.0   0.009   0.000   27.4    56   17.9   28.2  10.05 1.1480    117    1    100.0    5 
31/08/15  12:30   15.8   15.8   15.7    96   15.1   7.0     N   0.58  12.0   NNW   15.4   16.1   15.7  1010.4  0.00   0.0   0.009   0.000   27.4    57   18.2   28.2  10.18 1.1475    117    1    100.0    5 
31/08/15  12:35   15.9   15.9   15.8    96   15.3   6.0     N   0.50  11.0     N   15.7   16.2   16.0  1010.5  0.00   0.0   0.008   0.000   27.5    57   18.2   28.3  10.18 1.1472    117    1    100.0    5 
31/08/15  12:40   15.9   15.9   15.9    96   15.3   7.0     N   0.58  11.0     N   15.6   16.2   15.8  1010.5  0.00   0.0   0.008   0.000   27.5    56   17.9   28.2  10.05 1.1477    117    1    100.0    5 
31/08/15  12:45   15.9   15.9   15.8    96   15.3   8.0     N   0.67  14.0   NNW   15.1   16.2   15.4  1010.4  0.00   0.0   0.008   0.000   27.5    56   17.9   28.2  10.05 1.1476    118    1    100.0    5 
31/08/15  12:50   15.9   15.9   15.8    96   15.3   9.0     N   0.75  14.0     N   14.7   16.2   14.9  1010.3  0.00   0.0   0.008   0.000   27.5    56   17.9   28.2  10.05 1.1474    117    1    100.0    5 
31/08/15  12:55   15.9   15.9   15.9    96   15.3   9.0   NNE   0.75  15.0   NNE   14.7   16.2   14.9  1010.4  0.00   0.0   0.008   0.000   27.5    56   17.9   28.2  10.05 1.1475    116    1    100.0    5 
31/08/15  13:00   15.8   15.9   15.8    96   15.2   9.0   NNE   0.75  14.0   NNE   14.6   16.1   14.9  1010.3  0.00   0.0   0.009   0.000   27.6    56   18.0   28.3  10.05 1.1472    117    1    100.0    5 
31/08/15  13:05   15.8   15.8   15.8    96   15.2   8.0     N   0.67  12.0   NNE   15.1   16.1   15.3  1010.5  0.00   0.0   0.009   0.000   27.6    56   18.0   28.3  10.05 1.1474    117    1    100.0    5 
31/08/15  13:10   15.9   15.9   15.8    96   15.3   8.0     N   0.67  12.0     N   15.1   16.2   15.4  1010.5  0.00   0.0   0.008   0.000   27.6    56   18.0   28.3  10.05 1.1474    117    1    100.0    5 
31/08/15  13:15   15.8   15.9   15.8    96   15.2   6.0   NNW   0.50  11.0    NW   15.7   16.1   15.9  1010.7  0.00   0.0   0.009   0.000   27.6    56   18.0   28.4  10.05 1.1474    117    1    100.0    5 
31/08/15  13:20   15.8   15.9   15.8    96   15.2   7.0   NNW   0.58  12.0   NNW   15.4   16.1   15.7  1010.8  0.00   0.0   0.009   0.000   27.6    56   18.0   28.4  10.05 1.1475    117    1    100.0    5 
31/08/15  13:25   15.8   15.8   15.8    96   15.1   7.0   NNW   0.58  11.0     N   15.4   16.1   15.7  1010.7  0.00   0.0   0.009   0.000   27.6    56   18.0   28.4  10.05 1.1474    115    1    100.0    5 
31/08/15  13:30   15.8   15.8   15.8    96   15.2   6.0   NNW   0.50  11.0     N   15.7   16.1   15.9  1010.7  0.00   0.0   0.009   0.000   27.6    56   18.0   28.4  10.05 1.1474    116    1    100.0    5 
31/08/15  13:35   15.9   15.9   15.8    96   15.3   5.0     N   0.42  10.0   NNE   15.9   16.2   16.2  1010.7  0.00   0.0   0.008   0.000   27.6    56   18.0   28.4  10.05 1.1474    115    1    100.0    5 
31/08/15  13:40   15.9   15.9   15.9    96   15.3   7.0     N   0.58  13.0   NNW   15.6   16.2   15.8  1010.8  0.00   0.0   0.008   0.000   27.6    56   18.0   28.4  10.05 1.1474    116    1    100.0    5 
31/08/15  13:45   16.1   16.1   15.9    96   15.4   6.0     N   0.50  11.0     N   15.9   16.3   16.2  1010.8  0.00   0.0   0.008   0.000   27.6    55   17.8   28.3   9.85 1.1479    118    1    100.0    5 
31/08/15  13:50   16.2   16.2   16.1    97   15.7   7.0     N   0.58  11.0   NNE   15.9   16.6   16.3  1010.8  0.00   0.0   0.007   0.000   27.7    56   18.1   28.5  10.05 1.1472    117    1    100.0    5 
31/08/15  13:55   16.3   16.3   16.2    96   15.7   6.0     N   0.50  11.0     N   16.3   16.7   16.6  1010.9  0.00   0.0   0.007   0.000   27.6    56   18.0   28.4  10.05 1.1476    117    1    100.0    5 
31/08/15  14:00   16.3   16.3   16.3    96   15.6   5.0     N   0.42  11.0    NW   16.3   16.6   16.6  1010.9  0.00   0.0   0.007   0.000   27.7    56   18.1   28.5  10.05 1.1473    116    1    100.0    5 
31/08/15  14:05   16.3   16.3   16.3    96   15.7   4.0     N   0.33   9.0     N   16.3   16.7   16.7  1011.0  0.00   0.0   0.007   0.000   27.7    55   17.8   28.4   9.85 1.1478    117    1    100.0    5 
31/08/15  14:10   16.2   16.3   16.2    96   15.6   9.0   NNW   0.75  14.0   NNW   15.1   16.6   15.4  1011.0  0.00   0.0   0.007   0.000   27.7    55   17.9   28.5   9.85 1.1476    117    1    100.0    5 
31/08/15  14:15   16.2   16.2   16.2    96   15.6   7.0   NNW   0.58  13.0   NNW   15.9   16.6   16.3  1010.9  0.00   0.0   0.007   0.000   27.7    55   17.8   28.4   9.85 1.1478    117    1    100.0    5 
31/08/15  14:20   16.3   16.3   16.2    96   15.6   7.0   NNW   0.58  16.0   NNW   16.0   16.6   16.3  1011.1  0.00   0.0   0.007   0.000   27.7    55   17.9   28.5   9.85 1.1476    117    1    100.0    5 
31/08/15  14:25   16.3   16.4   16.3    96   15.7   7.0   NNW   0.58  13.0     N   16.1   16.7   16.4  1011.2  0.00   0.0   0.007   0.000   27.7    55   17.9   28.5   9.85 1.1478    117    1    100.0    5 
31/08/15  14:30   16.4   16.4   16.3    96   15.8   7.0     N   0.58  13.0   NNW   16.2   16.8   16.6  1011.2  0.00   0.0   0.007   0.000   27.7    55   17.9   28.5   9.85 1.1478    117    1    100.0    5 
31/08/15  14:35   16.5   16.5   16.4    96   15.9   7.0     N   0.58  12.0     N   16.3   16.9   16.7  1011.1  0.00   0.0   0.006   0.000   27.7    55   17.9   28.5   9.85 1.1476    116    1    100.0    5 
31/08/15  14:40   16.4   16.5   16.4    95   15.6   8.0   NNW   0.67  14.0    NW   15.8   16.8   16.1  1011.2  0.00   0.0   0.007   0.000   27.7    55   17.9   28.5   9.85 1.1478    117    1    100.0    5 
31/08/15  14:45   16.4   16.4   16.4    95   15.6   7.0   NNW   0.58  15.0   NNW   16.2   16.8   16.6  1011.2  0.00   0.0   0.007   0.000   27.7    55   17.9   28.5   9.85 1.1478    116    1    100.0    5 
31/08/15  14:50   16.3   16.4   16.3    95   15.5   8.0    NW   0.67  14.0   NNW   15.7   16.7   16.0  1011.3  0.00   0.0   0.007   0.000   27.7    55   17.9   28.5   9.85 1.1479    117    1    100.0    5 
31/08/15  14:55   16.3   16.4   16.3    95   15.5   7.0   NNW   0.58  11.0    NW   16.1   16.7   16.4  1011.3  0.00   0.0   0.007   0.000   27.7    55   17.9   28.5   9.85 1.1480    116    1    100.0    5 
31/08/15  15:00   16.4   16.4   16.4    95   15.6   7.0   NNW   0.58  13.0    NW   16.2   16.7   16.5  1011.4  0.00   0.0   0.007   0.000   27.7    55   17.9   28.5   9.85 1.1481    116    1    100.0    5 
31/08/15  15:05   16.5   16.5   16.4    95   15.7   7.0   NNW   0.58  11.0    NW   16.3   16.8   16.6  1011.6  0.00   0.0   0.006   0.000   27.7    55   17.9   28.5   9.85 1.1482    117    1    100.0    5 
31/08/15  15:10   16.6   16.6   16.5    95   15.8   6.0   NNW   0.50  11.0     N   16.6   17.0   17.0  1011.4  0.00   0.0   0.006   0.000   27.7    55   17.9   28.5   9.85 1.1481    115    1    100.0    5 
31/08/15  15:15   16.6   16.6   16.6    94   15.6   8.0   NNW   0.67  14.0     N   16.0   16.9   16.3  1011.4  0.00   0.0   0.006   0.000   27.7    55   17.9   28.5   9.85 1.1481    116    1    100.0    5 
31/08/15  15:20   16.7   16.7   16.6    94   15.7   7.0   NNW   0.58  12.0    NW   16.5   17.1   16.9  1011.4  0.00   0.0   0.006   0.000   27.8    56   18.2   28.7  10.05 1.1473    115    1    100.0    5 
31/08/15  15:25   16.6   16.7   16.6    94   15.6   9.0    NW   0.75  15.0   NNW   15.4   16.9   15.8  1011.5  0.00   0.0   0.006   0.000   27.7    56   18.1   28.6  10.05 1.1477    117    1    100.0    5 
31/08/15  15:30   16.4   16.6   16.4    94   15.5   9.0   NNW   0.75  14.0   NNW   15.3   16.8   15.7  1011.5  0.00   0.0   0.007   0.000   27.7    56   18.1   28.6  10.05 1.1477    116    1    100.0    5 
31/08/15  15:35   16.4   16.4   16.4    94   15.5   7.0     N   0.58  13.0     N   16.2   16.8   16.6  1011.5  0.00   0.0   0.007   0.000   27.7    54   17.6   28.4   9.75 1.1486    116    1    100.0    5 
31/08/15  15:40   16.4   16.4   16.4    94   15.5   9.0   NNW   0.75  13.0    NW   15.3   16.8   15.7  1011.6  0.00   0.0   0.007   0.000   27.7    55   17.9   28.5   9.85 1.1482    117    1    100.0    5 
31/08/15  15:45   16.3   16.4   16.3    94   15.4  11.0     N   0.92  18.0   NNE   14.4   16.7   14.7  1011.6  0.00   0.0   0.007   0.000   27.7    55   17.9   28.5   9.85 1.1483    116    1    100.0    5 
31/08/15  15:50   16.3   16.3   16.3    94   15.4   9.0     N   0.75  16.0     N   15.2   16.7   15.5  1011.7  0.00   0.0   0.007   0.000   27.7    55   17.9   28.5   9.85 1.1483    116    1    100.0    5 
31/08/15  15:55   16.4   16.4   16.3    94   15.5   7.0     N   0.58  10.0   NNW   16.2   16.8   16.6  1011.7  0.00   0.0   0.007   0.000   27.7    55   17.9   28.5   9.85 1.1484    118    1    100.0    5 
31/08/15  16:00   16.4   16.4   16.4    93   15.3   8.0   NNW   0.67  13.0   NNW   15.8   16.8   16.1  1011.8  0.00   0.0   0.007   0.000   27.7    55   17.9   28.5   9.85 1.1485    117    1    100.0    5 
31/08/15  16:05   16.4   16.5   16.4    93   15.3   7.0   NNW   0.58  12.0    NW   16.2   16.8   16.6  1012.0  0.00   0.0   0.007   0.000   27.7    55   17.9   28.5   9.85 1.1487    117    1    100.0    5 
31/08/15  16:10   16.4   16.5   16.4    93   15.3   8.0   NNW   0.67  15.0     N   15.8   16.8   16.1  1011.8  0.00   0.0   0.007   0.000   27.7    55   17.9   28.5   9.85 1.1485    117    1    100.0    5 
99912